Another Hard Day at the Office Weather Stats

 
 
 

High monthly outside Temperature, 22.8 , C
Low monthly outside Temperature, -1.0 , C
High yearly outside Temperature, 30.9 , C
Low yearly outside Temperature, -2.2 , C

Low monthly barometer, 1001.1 , mb
High monthly barometer, 1028.0 , mb
Low yearly barometer, 975.0 , mb
High yearly barometer 1041.1 , mb

High wind speed, 25.0 , mph
Time of High wind speed, 21:37 , mph
High monthly wind speed, 47.0 , mph
High yearly wind speed, 55.0 , mph

 

 




3126
                    Temp     Hi    Low   Out    Dew  Wind  Wind   Wind    Hi    Hi   Wind   Heat    THW                Rain    Heat    Cool    In     In    In     In     In   In Air  Wind  Wind    ISS   Arc.
  Date    Time     Out   Temp   Temp   Hum    Pt. Speed   Dir    Run Speed   Dir  Chill  Index  Index   Bar    Rain  Rate    D-D     D-D    Temp   Hum    Dew   Heat    EMC Density  Samp   Tx   Recept  Int.
---------------------------------------------------------------------------------------------------------------------------------------------------------------------------------------------------------------
16/07/18   0:05   19.1   19.2   19.1    65   12.4   0.0   ---   0.00   0.0   ---   19.1   19.1   19.1  1014.1  0.00  0.00   0.000   0.003   26.1    51   15.1   26.2   9.35  .0725    115    1    100.0    5 
16/07/18   0:10   19.1   19.1   19.1    65   12.4   0.0   ---   0.00   0.0   ---   19.1   19.1   19.1  1014.1  0.00  0.00   0.000   0.003   26.0    50   14.8   26.1   9.17  .0725    117    1    100.0    5 
16/07/18   0:15   19.2   19.2   19.1    65   12.4   0.0   ---   0.00   0.0   ---   19.2   19.1   19.1  1014.0  0.00  0.00   0.000   0.003   25.9    50   14.7   26.0   9.18  .0726    116    1    100.0    5 
16/07/18   0:20   19.2   19.2   19.2    65   12.4   0.0   ---   0.00   0.0   ---   19.2   19.1   19.1  1014.1  0.00  0.00   0.000   0.003   25.9    50   14.7   25.9   9.18  .0726    115    1    100.0    5 
16/07/18   0:25   19.2   19.2   19.2    65   12.4   0.0   ---   0.00   0.0   ---   19.2   19.1   19.1  1014.1  0.00  0.00   0.000   0.003   25.8    51   14.9   25.9   9.35  .0726    117    1    100.0    5 
16/07/18   0:30   19.2   19.2   19.2    66   12.7   0.0   ---   0.00   0.0   ---   19.2   19.2   19.2  1014.0  0.00  0.00   0.000   0.003   25.8    51   14.9   25.9   9.35  .0726    117    1    100.0    5 
16/07/18   0:35   19.3   19.3   19.2    67   13.0   0.0   ---   0.00   0.0   ---   19.3   19.4   19.4  1014.0  0.00  0.00   0.000   0.003   25.7    52   15.1   25.8   9.48  .0726    117    1    100.0    5 
16/07/18   0:40   19.4   19.4   19.3    67   13.1   1.0     W   0.08   3.0     W   19.4   19.4   19.4  1013.9  0.00  0.00   0.000   0.004   25.7    52   15.1   25.8   9.48  .0726    116    1    100.0    5 
16/07/18   0:45   19.4   19.4   19.4    67   13.2   1.0     W   0.08   3.0     W   19.4   19.6   19.6  1013.9  0.00  0.00   0.000   0.004   25.7    53   15.4   25.8   9.65  .0726    117    1    100.0    5 
16/07/18   0:50   19.3   19.4   19.3    67   13.0   0.0     W   0.00   1.0     W   19.3   19.4   19.4  1013.9  0.00  0.00   0.000   0.003   25.7    53   15.4   25.8   9.65  .0726    117    1    100.0    5 
16/07/18   0:55   19.2   19.3   19.2    67   12.9   0.0     W   0.00   1.0     W   19.2   19.3   19.3  1013.9  0.00  0.00   0.000   0.003   25.7    53   15.4   25.9   9.65  .0725    116    1    100.0    5 
16/07/18   1:00   19.1   19.2   19.1    67   12.8   0.0     W   0.00   1.0     W   19.1   19.1   19.1  1013.9  0.00  0.00   0.000   0.003   25.7    52   15.1   25.8   9.48  .0726    117    1    100.0    5 
16/07/18   1:05   18.9   19.1   18.9    67   12.7   0.0   ---   0.00   0.0   ---   18.9   18.9   18.9  1013.8  0.00  0.00   0.000   0.002   25.7    51   14.8   25.8   9.35  .0726    115    1    100.0    5 
16/07/18   1:10   18.8   18.9   18.8    67   12.5   0.0   ---   0.00   0.0   ---   18.8   18.7   18.7  1013.9  0.00  0.00   0.000   0.002   25.7    51   14.8   25.8   9.35  .0726    117    1    100.0    5 
16/07/18   1:15   18.6   18.8   18.6    67   12.4   0.0   ---   0.00   0.0   ---   18.6   18.6   18.6  1013.8  0.00  0.00   0.000   0.001   25.7    51   14.8   25.8   9.35  .0726    117    1    100.0    5 
16/07/18   1:20   18.4   18.6   18.4    67   12.2   0.0   ---   0.00   0.0   ---   18.4   18.3   18.3  1013.8  0.00  0.00   0.000   0.000   25.7    51   14.8   25.7   9.35  .0726    117    1    100.0    5 
16/07/18   1:25   18.3   18.4   18.3    67   12.0   0.0     W   0.00   1.0     W   18.3   18.2   18.2  1013.8  0.00  0.00   0.000   0.000   25.6    51   14.7   25.7   9.35  .0726    115    1    100.0    5 
16/07/18   1:30   18.2   18.3   18.2    67   11.9   1.0     W   0.08   2.0     W   18.2   18.1   18.1  1013.8  0.00  0.00   0.001   0.000   25.6    50   14.4   25.6   9.19  .0727    117    1    100.0    5 
16/07/18   1:35   18.0   18.2   18.0    68   12.0   0.0     W   0.00   2.0     W   18.0   17.9   17.9  1013.7  0.00  0.00   0.001   0.000   25.5    51   14.6   25.6   9.35  .0726    117    1    100.0    5 
16/07/18   1:40   17.9   18.0   17.9    68   11.9   1.0     W   0.08   2.0     W   17.9   17.7   17.7  1013.7  0.00  0.00   0.002   0.000   25.4    51   14.6   25.5   9.35  .0727    116    1    100.0    5 
16/07/18   1:45   17.8   17.9   17.8    68   11.8   0.0     W   0.00   1.0     W   17.8   17.6   17.6  1013.7  0.00  0.00   0.002   0.000   25.3    51   14.5   25.3   9.35  .0727    116    1    100.0    5 
16/07/18   1:50   17.7   17.8   17.7    68   11.7   0.0     W   0.00   2.0     W   17.7   17.5   17.5  1013.6  0.00  0.00   0.002   0.000   25.3    51   14.5   25.3   9.35  .0727    117    1    100.0    5 
16/07/18   1:55   17.5   17.7   17.5    68   11.5   0.0     W   0.00   2.0     W   17.5   17.3   17.3  1013.6  0.00  0.00   0.003   0.000   25.3    51   14.4   25.3   9.35  .0727    118    1    100.0    5 
16/07/18   2:00   17.4   17.5   17.4    69   11.7   0.0   ---   0.00   0.0   ---   17.4   17.3   17.3  1013.5  0.00  0.00   0.003   0.000   25.3    51   14.4   25.3   9.35  .0727    116    1    100.0    5 
16/07/18   2:05   17.3   17.4   17.3    69   11.6   0.0     W   0.00   1.0     W   17.3   17.2   17.2  1013.5  0.00  0.00   0.003   0.000   25.3    51   14.4   25.3   9.35  .0727    115    1    100.0    5 
16/07/18   2:10   17.2   17.3   17.2    69   11.5   0.0   ---   0.00   0.0   ---   17.2   17.0   17.0  1013.4  0.00  0.00   0.004   0.000   25.3    51   14.4   25.3   9.35  .0727    117    1    100.0    5 
16/07/18   2:15   17.2   17.3   17.2    69   11.4   0.0     W   0.00   1.0     W   17.2   16.9   16.9  1013.4  0.00  0.00   0.004   0.000   25.2    51   14.4   25.2   9.35  .0727    116    1    100.0    5 
16/07/18   2:20   17.1   17.2   17.1    69   11.3   0.0     W   0.00   1.0     W   17.1   16.8   16.8  1013.3  0.00  0.00   0.004   0.000   25.2    51   14.4   25.2   9.35  .0727    116    1    100.0    5 
16/07/18   2:25   16.9   17.1   16.9    69   11.2   0.0     W   0.00   1.0     W   16.9   16.7   16.7  1013.3  0.00  0.00   0.005   0.000   25.2    50   14.0   25.1   9.20  .0727    115    1    100.0    5 
16/07/18   2:30   16.9   16.9   16.9    69   11.2   0.0     W   0.00   2.0     W   16.9   16.6   16.6  1013.2  0.00  0.00   0.005   0.000   25.1    50   14.0   25.0   9.21  .0728    116    1    100.0    5 
16/07/18   2:35   16.8   16.9   16.8    69   11.1   0.0     W   0.00   2.0     W   16.8   16.5   16.5  1013.2  0.00  0.00   0.005   0.000   25.1    50   13.9   24.9   9.21  .0728    115    1    100.0    5 
16/07/18   2:40   16.7   16.8   16.7    70   11.2   0.0     W   0.00   1.0     W   16.7   16.4   16.4  1013.2  0.00  0.00   0.006   0.000   25.1    51   14.2   25.0   9.35  .0728    117    1    100.0    5 
16/07/18   2:45   16.7   16.7   16.7    70   11.2   0.0   ---   0.00   0.0   ---   16.7   16.4   16.4  1013.2  0.00  0.00   0.006   0.000   25.1    50   13.9   24.9   9.21  .0728    115    1    100.0    5 
16/07/18   2:50   16.6   16.7   16.6    70   11.1   0.0     W   0.00   1.0     W   16.6   16.3   16.3  1013.2  0.00  0.00   0.006   0.000   25.1    51   14.2   25.0   9.35  .0728    117    1    100.0    5 
16/07/18   2:55   16.6   16.6   16.6    70   11.1   0.0   ---   0.00   0.0   ---   16.6   16.3   16.3  1013.2  0.00  0.00   0.006   0.000   25.1    51   14.2   25.0   9.35  .0727    116    1    100.0    5 
16/07/18   3:00   16.5   16.6   16.5    70   11.0   0.0   ---   0.00   0.0   ---   16.5   16.2   16.2  1013.2  0.00  0.00   0.006   0.000   25.1    51   14.3   25.1   9.35  .0727    118    1    100.0    5 
16/07/18   3:05   16.4   16.5   16.4    70   11.0   0.0   ---   0.00   0.0   ---   16.4   16.2   16.2  1013.1  0.00  0.00   0.007   0.000   25.2    51   14.3   25.2   9.35  .0727    116    1    100.0    5 
16/07/18   3:10   16.4   16.4   16.4    70   10.9   0.0   ---   0.00   0.0   ---   16.4   16.1   16.1  1013.1  0.00  0.00   0.007   0.000   25.2    51   14.3   25.2   9.35  .0727    116    1    100.0    5 
16/07/18   3:15   16.3   16.4   16.3    70   10.8   0.0   ---   0.00   0.0   ---   16.3   15.9   15.9  1013.1  0.00  0.00   0.007   0.000   25.2    51   14.3   25.2   9.35  .0727    114    1    100.0    5 
16/07/18   3:20   16.3   16.3   16.3    70   10.8   0.0   ---   0.00   0.0   ---   16.3   15.9   15.9  1013.0  0.00  0.00   0.007   0.000   25.2    51   14.4   25.2   9.35  .0727    115    1    100.0    5 
16/07/18   3:25   16.2   16.3   16.2    70   10.7   0.0   ---   0.00   0.0   ---   16.2   15.9   15.9  1013.1  0.00  0.00   0.007   0.000   25.2    51   14.4   25.2   9.35  .0727    114    1    100.0    5 
16/07/18   3:30   16.2   16.2   16.2    71   10.9   0.0   ---   0.00   0.0   ---   16.2   15.9   15.9  1013.1  0.00  0.00   0.008   0.000   25.2    50   14.1   25.2   9.20  .0727    117    1    100.0    5 
16/07/18   3:35   16.1   16.2   16.1    71   10.8   0.0   ---   0.00   0.0   ---   16.1   15.8   15.8  1013.0  0.00  0.00   0.008   0.000   25.2    50   14.0   25.1   9.20  .0727    117    1    100.0    5 
16/07/18   3:40   16.0   16.1   16.0    71   10.7   0.0   ---   0.00   0.0   ---   16.0   15.7   15.7  1013.0  0.00  0.00   0.008   0.000   25.2    51   14.3   25.2   9.35  .0727    116    1    100.0    5 
16/07/18   3:45   15.9   16.1   15.9    71   10.7   0.0   ---   0.00   0.0   ---   15.9   15.7   15.7  1013.0  0.00  0.00   0.008   0.000   25.2    50   14.0   25.1   9.20  .0727    115    1    100.0    5 
16/07/18   3:50   15.9   16.0   15.9    71   10.7   0.0   ---   0.00   0.0   ---   15.9   15.7   15.7  1012.9  0.00  0.00   0.008   0.000   25.1    51   14.3   25.1   9.35  .0727    117    1    100.0    5 
16/07/18   3:55   15.9   15.9   15.9    71   10.6   0.0   ---   0.00   0.0   ---   15.9   15.6   15.6  1013.0  0.00  0.00   0.008   0.000   25.2    50   14.0   25.1   9.20  .0727    116    1    100.0    5 
16/07/18   4:00   15.8   15.9   15.8    71   10.6   0.0   ---   0.00   0.0   ---   15.8   15.6   15.6  1012.9  0.00  0.00   0.009   0.000   25.2    50   14.1   25.2   9.20  .0727    117    1    100.0    5 
16/07/18   4:05   15.8   15.8   15.8    72   10.8   0.0   ---   0.00   0.0   ---   15.8   15.6   15.6  1012.9  0.00  0.00   0.009   0.000   25.2    50   14.1   25.2   9.20  .0727    116    1    100.0    5 
16/07/18   4:10   15.8   15.8   15.8    72   10.7   0.0   ---   0.00   0.0   ---   15.8   15.5   15.5  1012.8  0.00  0.00   0.009   0.000   25.2    50   14.1   25.2   9.20  .0727    116    1    100.0    5 
16/07/18   4:15   15.8   15.8   15.8    72   10.7   0.0   ---   0.00   0.0   ---   15.8   15.5   15.5  1012.9  0.00  0.00   0.009   0.000   25.3    50   14.1   25.2   9.20  .0727    117    1    100.0    5 
16/07/18   4:20   15.8   15.8   15.8    72   10.7   0.0   ---   0.00   0.0   ---   15.8   15.5   15.5  1012.8  0.00  0.00   0.009   0.000   25.3    50   14.1   25.2   9.20  .0727    117    1    100.0    5 
16/07/18   4:25   15.8   15.8   15.8    72   10.7   0.0   ---   0.00   0.0   ---   15.8   15.5   15.5  1012.9  0.00  0.00   0.009   0.000   25.3    50   14.1   25.2   9.20  .0727    117    1    100.0    5 
16/07/18   4:30   15.8   15.8   15.8    72   10.7   0.0   ---   0.00   0.0   ---   15.8   15.5   15.5  1012.9  0.00  0.00   0.009   0.000   25.3    50   14.1   25.2   9.20  .0727    117    1    100.0    5 
16/07/18   4:35   15.7   15.8   15.7    72   10.7   0.0   ---   0.00   0.0   ---   15.7   15.4   15.4  1012.9  0.00  0.00   0.009   0.000   25.2    50   14.1   25.2   9.20  .0727    116    1    100.0    5 
16/07/18   4:40   15.7   15.7   15.7    72   10.6   0.0   ---   0.00   0.0   ---   15.7   15.4   15.4  1012.9  0.00  0.00   0.009   0.000   25.2    50   14.1   25.2   9.20  .0727    116    1    100.0    5 
16/07/18   4:45   15.7   15.7   15.7    72   10.6   0.0   ---   0.00   0.0   ---   15.7   15.4   15.4  1013.0  0.00  0.00   0.009   0.000   25.2    50   14.1   25.2   9.20  .0727    117    1    100.0    5 
16/07/18   4:50   15.7   15.7   15.6    72   10.6   0.0   ---   0.00   0.0   ---   15.7   15.4   15.4  1013.0  0.00  0.00   0.009   0.000   25.2    50   14.1   25.2   9.20  .0727    117    1    100.0    5 
16/07/18   4:55   15.6   15.7   15.6    72   10.6   0.0   ---   0.00   0.0   ---   15.6   15.3   15.3  1012.9  0.00  0.00   0.009   0.000   25.2    50   14.1   25.2   9.20  .0727    116    1    100.0    5 
16/07/18   5:00   15.6   15.6   15.6    73   10.7   0.0   ---   0.00   0.0   ---   15.6   15.3   15.3  1012.9  0.00  0.00   0.010   0.000   25.3    50   14.1   25.2   9.20  .0727    117    1    100.0    5 
16/07/18   5:05   15.6   15.6   15.6    73   10.7   0.0   ---   0.00   0.0   ---   15.6   15.3   15.3  1012.9  0.00  0.00   0.010   0.000   25.2    50   14.1   25.2   9.20  .0727    117    1    100.0    5 
16/07/18   5:10   15.7   15.7   15.6    73   10.8   0.0   ---   0.00   0.0   ---   15.7   15.4   15.4  1013.0  0.00  0.00   0.009   0.000   25.2    49   13.7   25.1   9.00  .0727    116    1    100.0    5 
16/07/18   5:15   15.7   15.7   15.7    73   10.9   0.0   ---   0.00   0.0   ---   15.7   15.4   15.4  1013.0  0.00  0.00   0.009   0.000   25.1    49   13.6   25.0   9.01  .0728    117    1    100.0    5 
16/07/18   5:20   15.8   15.8   15.8    73   11.0   0.0   ---   0.00   0.0   ---   15.8   15.6   15.6  1013.0  0.00  0.00   0.009   0.000   25.1    49   13.6   24.9   9.01  .0728    116    1    100.0    5 
16/07/18   5:25   16.1   16.1   15.8    73   11.2   0.0     W   0.00   1.0     W   16.1   15.8   15.8  1013.0  0.00  0.00   0.008   0.000   25.0    50   13.9   24.9   9.21  .0728    116    1    100.0    5 
16/07/18   5:30   16.2   16.2   16.1    73   11.4   0.0     W   0.00   1.0     W   16.2   16.0   16.0  1013.0  0.00  0.00   0.007   0.000   24.9    50   13.8   24.8   9.21  .0728    115    1    100.0    5 
16/07/18   5:35   16.3   16.3   16.2    73   11.5   0.0     W   0.00   1.0     W   16.3   16.1   16.1  1012.9  0.00  0.00   0.007   0.000   24.8    50   13.6   24.7   9.22  .0728    117    1    100.0    5 
16/07/18   5:40   16.5   16.5   16.4    72   11.4   0.0     W   0.00   2.0     W   16.5   16.3   16.3  1012.9  0.00  0.00   0.006   0.000   24.7    50   13.5   24.6   9.22  .0729    117    1    100.0    5 
16/07/18   5:45   16.7   16.7   16.5    71   11.4   2.0     W   0.17   3.0     W   16.7   16.4   16.4  1012.9  0.00  0.00   0.006   0.000   24.6    50   13.5   24.6   9.22  .0729    117    1    100.0    5 
16/07/18   5:50   16.7   16.7   16.7    71   11.4   1.0     W   0.08   3.0     W   16.7   16.4   16.4  1012.9  0.00  0.00   0.006   0.000   24.5    50   13.4   24.5   9.23  .0729    117    1    100.0    5 
16/07/18   5:55   16.7   16.7   16.7    70   11.2   0.0     W   0.00   2.0     W   16.7   16.4   16.4  1012.9  0.00  0.00   0.006   0.000   24.4    50   13.3   24.4   9.23  .0729    117    1    100.0    5 
16/07/18   6:00   16.7   16.7   16.6    70   11.2   0.0     W   0.00   1.0     W   16.7   16.4   16.4  1012.9  0.00  0.00   0.006   0.000   24.4    51   13.6   24.4   9.35  .0729    117    1    100.0    5 
16/07/18   6:05   16.6   16.7   16.6    71   11.3   0.0     W   0.00   1.0     W   16.6   16.4   16.4  1012.9  0.00  0.00   0.006   0.000   24.4    51   13.6   24.5   9.35  .0729    116    1    100.0    5 
16/07/18   6:10   16.6   16.6   16.6    71   11.3   0.0     W   0.00   1.0     W   16.6   16.4   16.4  1012.8  0.00  0.00   0.006   0.000   24.5    51   13.7   24.5   9.35  .0729    117    1    100.0    5 
16/07/18   6:15   16.6   16.6   16.6    71   11.3   0.0     W   0.00   1.0     W   16.6   16.3   16.3  1012.8  0.00  0.00   0.006   0.000   24.6    51   13.8   24.6   9.35  .0729    116    1    100.0    5 
16/07/18   6:20   16.6   16.6   16.6    71   11.3   0.0     W   0.00   1.0     W   16.6   16.3   16.3  1012.9  0.00  0.00   0.006   0.000   24.7    51   13.9   24.7   9.35  .0728    115    1    100.0    5 
16/07/18   6:25   16.6   16.6   16.6    71   11.3   0.0   ---   0.00   0.0   ---   16.6   16.3   16.3  1012.8  0.00  0.00   0.006   0.000   24.8    51   14.0   24.8   9.35  .0728    117    1    100.0    5 
16/07/18   6:30   16.6   16.6   16.6    71   11.3   0.0   ---   0.00   0.0   ---   16.6   16.3   16.3  1012.8  0.00  0.00   0.006   0.000   24.8    51   14.0   24.8   9.35  .0728    117    1    100.0    5 
16/07/18   6:35   16.6   16.6   16.6    71   11.3   0.0     W   0.00   1.0     W   16.6   16.4   16.4  1012.8  0.00  0.00   0.006   0.000   24.9    50   13.8   24.8   9.21  .0728    117    1    100.0    5 
16/07/18   6:40   16.7   16.7   16.6    71   11.4   0.0     W   0.00   1.0     W   16.7   16.5   16.5  1012.8  0.00  0.00   0.006   0.000   24.9    50   13.8   24.8   9.21  .0728    116    1    100.0    5 
16/07/18   6:45   16.9   16.9   16.7    71   11.6   0.0     W   0.00   2.0     W   16.9   16.7   16.7  1012.8  0.00  0.00   0.005   0.000   24.9    50   13.8   24.8   9.21  .0728    117    1    100.0    5 
16/07/18   6:50   17.2   17.2   16.9    72   12.1   0.0     W   0.00   1.0     W   17.2   17.1   17.1  1012.8  0.00  0.00   0.004   0.000   24.9    51   14.1   24.8   9.35  .0728    115    1    100.0    5 
16/07/18   6:55   17.3   17.3   17.2    71   12.0   0.0   ---   0.00   0.0   ---   17.3   17.2   17.2  1012.8  0.00  0.00   0.004   0.000   24.9    50   13.8   24.8   9.21  .0728    116    1    100.0    5 
16/07/18   7:00   17.4   17.4   17.3    70   11.9   0.0   ---   0.00   0.0   ---   17.4   17.2   17.2  1012.8  0.00  0.00   0.003   0.000   24.9    50   13.8   24.8   9.21  .0728    115    1    100.0    5 
16/07/18   7:05   17.8   17.8   17.4    71   12.5   0.0     W   0.00   1.0     W   17.8   17.8   17.8  1012.8  0.00  0.00   0.002   0.000   24.9    51   14.1   24.8   9.35  .0728    116    1    100.0    5 
16/07/18   7:10   18.2   18.2   17.8    71   12.9   1.0     W   0.08   2.0     W   18.2   18.2   18.2  1012.8  0.00  0.00   0.000   0.000   24.8    52   14.3   24.8   9.52  .0728    117    1    100.0    5 
16/07/18   7:15   18.4   18.4   18.2    70   12.8   0.0     W   0.00   1.0     W   18.4   18.4   18.4  1012.9  0.00  0.00   0.000   0.000   24.8    53   14.5   24.8   9.65  .0728    118    1    100.0    5 
16/07/18   7:20   18.5   18.5   18.4    70   12.9   0.0     W   0.00   1.0     W   18.5   18.6   18.6  1012.9  0.00  0.00   0.000   0.001   24.8    52   14.3   24.8   9.52  .0728    116    1    100.0    5 
16/07/18   7:25   18.6   18.6   18.5    70   13.0   0.0   ---   0.00   0.0   ---   18.6   18.6   18.6  1012.9  0.00  0.00   0.000   0.001   24.8    52   14.3   24.8   9.52  .0728    116    1    100.0    5 
16/07/18   7:30   18.7   18.7   18.6    70   13.1   0.0     W   0.00   1.0     W   18.7   18.8   18.8  1012.9  0.00  0.00   0.000   0.001   25.0    52   14.5   25.0   9.51  .0727    117    1    100.0    5 
16/07/18   7:35   18.9   18.9   18.7    70   13.3   0.0     W   0.00   1.0     W   18.9   19.0   19.0  1012.9  0.00  0.00   0.000   0.002   25.1    53   14.9   25.2   9.65  .0727    117    1    100.0    5 
16/07/18   7:40   19.1   19.1   18.9    70   13.5   0.0   ---   0.00   0.0   ---   19.1   19.3   19.3  1012.9  0.00  0.00   0.000   0.003   25.3    52   14.7   25.3   9.50  .0726    116    1    100.0    5 
16/07/18   7:45   19.4   19.4   19.1    69   13.6   0.0   ---   0.00   0.0   ---   19.4   19.6   19.6  1012.8  0.00  0.00   0.000   0.004   25.4    53   15.1   25.5   9.65  .0726    117    1    100.0    5 
16/07/18   7:50   19.6   19.6   19.4    69   13.7   0.0     W   0.00   2.0     W   19.6   19.8   19.8  1012.9  0.00  0.00   0.000   0.004   25.5    52   14.9   25.6   9.49  .0726    117    1    100.0    5 
16/07/18   7:55   19.7   19.7   19.6    67   13.4   2.0     W   0.17   7.0     N   19.7   19.9   19.9  1012.8  0.00  0.00   0.000   0.005   25.6    50   14.4   25.6   9.19  .0726    117    1    100.0    5 
16/07/18   8:00   19.9   19.9   19.7    65   13.1   3.0     N   0.25   8.0     N   19.9   20.0   20.0  1012.8  0.00  0.00   0.000   0.005   25.6    48   13.7   25.4   8.89  .0726    115    1    100.0    5 
16/07/18   8:05   20.1   20.1   19.9    63   12.8   4.0     N   0.33   9.0     N   20.1   20.1   20.1  1012.8  0.00  0.00   0.000   0.006   25.6    47   13.4   25.4   8.69  .0727    117    1    100.0    5 
16/07/18   8:10   20.3   20.3   20.1    62   12.8   5.0     N   0.42   9.0   NNW   20.3   20.2   20.2  1012.8  0.00  0.00   0.000   0.007   25.6    47   13.4   25.4   8.69  .0727    117    1    100.0    5 
16/07/18   8:15   20.6   20.6   20.3    60   12.6   6.0     N   0.50  11.0     N   20.6   20.3   20.3  1012.8  0.00  0.00   0.000   0.008   25.6    46   13.1   25.4   8.49  .0727    118    1    100.0    5 
16/07/18   8:20   20.9   20.9   20.6    59   12.6   5.0     N   0.42   9.0     N   20.9   20.5   20.5  1012.8  0.00  0.00   0.000   0.009   25.6    46   13.1   25.4   8.49  .0727    117    1    100.0    5 
16/07/18   8:25   21.3   21.3   21.0    58   12.7   5.0     N   0.42   9.0     N   21.3   20.8   20.8  1012.7  0.00  0.00   0.000   0.010   25.6    46   13.1   25.4   8.49  .0727    117    1    100.0    5 
16/07/18   8:30   21.7   21.7   21.3    58   13.0   6.0     N   0.50  12.0   NNE   21.7   21.3   21.3  1012.7  0.00  0.00   0.000   0.012   25.7    45   12.8   25.4   8.39  .0727    117    1    100.0    5 
16/07/18   8:35   22.0   22.0   21.7    60   13.9   4.0     N   0.33   7.0     N   22.0   21.8   21.8  1012.7  0.00  0.00   0.000   0.013   25.7    45   12.8   25.4   8.39  .0727    117    1    100.0    5 
16/07/18   8:40   22.4   22.4   22.1    58   13.8   5.0   NNW   0.42   7.0     N   22.4   22.4   22.4  1012.7  0.00  0.00   0.000   0.014   25.7    45   12.9   25.5   8.38  .0726    116    1    100.0    5 
16/07/18   8:45   22.8   22.8   22.5    56   13.6   5.0   NNW   0.42   8.0   NNW   22.8   22.9   22.9  1012.7  0.00  0.00   0.000   0.016   25.7    45   12.9   25.5   8.38  .0726    117    1    100.0    5 
16/07/18   8:50   23.1   23.1   22.8    55   13.5   4.0    NW   0.33  10.0    NW   23.1   23.1   23.1  1012.7  0.00  0.00   0.000   0.016   25.8    45   12.9   25.6   8.38  .0726    117    1    100.0    5 
16/07/18   8:55   23.2   23.2   23.1    55   13.6   4.0   NNW   0.33   7.0   NNW   23.2   23.2   23.2  1012.7  0.00  0.00   0.000   0.017   25.8    45   13.0   25.6   8.38  .0726    117    1    100.0    5 
16/07/18   9:00   23.4   23.4   23.2    55   13.8   4.0   NNW   0.33  12.0   NNE   23.4   23.5   23.5  1012.7  0.00  0.00   0.000   0.018   25.9    45   13.0   25.7   8.38  .0726    116    1    100.0    5 
16/07/18   9:05   23.6   23.6   23.4    54   13.7   5.0     N   0.42  10.0     N   23.6   23.7   23.7  1012.7  0.00  0.00   0.000   0.018   25.9    44   12.8   25.7   8.18  .0726    116    1    100.0    5 
16/07/18   9:10   23.7   23.7   23.6    53   13.5   5.0   NNW   0.42  10.0     N   23.7   23.8   23.8  1012.7  0.00  0.00   0.000   0.019   25.9    44   12.8   25.7   8.18  .0726    117    1    100.0    5 
16/07/18   9:15   23.8   23.8   23.7    52   13.4   5.0   NNW   0.42  10.0   NNW   23.8   23.9   23.9  1012.7  0.00  0.00   0.000   0.019   26.0    44   12.8   25.8   8.17  .0726    116    1    100.0    5 
16/07/18   9:20   23.9   23.9   23.8    53   13.8   6.0     N   0.50  10.0     N   23.9   24.1   24.1  1012.8  0.00  0.00   0.000   0.019   26.1    44   12.9   25.8   8.17  .0726    118    1    100.0    5 
16/07/18   9:25   24.1   24.1   23.9    53   13.9   5.0     N   0.42   9.0     N   24.1   24.2   24.2  1012.6  0.00  0.00   0.000   0.020   26.1    44   12.9   25.9   8.17  .0725    117    1    100.0    5 
16/07/18   9:30   24.3   24.3   24.1    53   14.1   4.0     N   0.33  10.0     N   24.3   24.4   24.4  1012.7  0.00  0.00   0.000   0.021   26.2    44   13.0   25.9   8.17  .0725    117    1    100.0    5 
16/07/18   9:35   24.6   24.6   24.3    53   14.4   3.0     N   0.25   7.0     N   24.6   24.7   24.7  1012.6  0.00  0.00   0.000   0.022   26.2    44   13.0   25.9   8.17  .0725    117    1    100.0    5 
16/07/18   9:40   24.9   24.9   24.7    52   14.4   4.0   NNE   0.33   8.0   NNE   24.9   24.9   24.9  1012.7  0.00  0.00   0.000   0.023   26.3    45   13.4   26.1   8.36  .0725    115    1    100.0    5 
16/07/18   9:45   25.0   25.0   24.9    51   14.2   3.0    NE   0.25   9.0   NNE   25.0   24.9   24.9  1012.7  0.00  0.00   0.000   0.023   26.3    44   13.1   26.1   8.16  .0725    116    1    100.0    5 
16/07/18   9:50   25.2   25.2   25.0    51   14.4   2.0    NE   0.17   5.0    NE   25.2   25.2   25.2  1012.8  0.00  0.00   0.000   0.024   26.4    44   13.2   26.1   8.16  .0725    117    1    100.0    5 
16/07/18   9:55   25.7   25.7   25.2    50   14.5   0.0    NE   0.00   3.0    NE   25.7   25.7   25.7  1012.8  0.00  0.00   0.000   0.025   26.4    45   13.5   26.2   8.36  .0725    117    1    100.0    5 
16/07/18  10:00   26.2   26.2   25.7    48   14.3   1.0    NE   0.08   7.0   ENE   26.2   26.2   26.2  1012.9  0.00  0.00   0.000   0.027   26.4    44   13.2   26.2   8.16  .0725    117    1    100.0    5 
16/07/18  10:05   26.1   26.3   26.1    57   16.9   4.0    SE   0.33   7.0   ESE   26.1   26.5   26.5  1012.9  0.00  0.00   0.000   0.027   26.5    45   13.6   26.3   8.36  .0724    117    1    100.0    5 
16/07/18  10:10   25.1   26.1   25.1    59   16.5   5.0   SSE   0.42   7.0    SE   25.1   25.4   25.4  1013.0  0.00  0.00   0.000   0.023   26.6    47   14.3   26.4   8.65  .0724    116    1    100.0    5 
16/07/18  10:15   24.3   25.0   24.3    62   16.5   5.0   SSE   0.42   7.0   SSE   24.3   24.8   24.8  1012.9  0.00  0.00   0.000   0.021   26.6    49   15.0   26.6   8.95  .0723    117    1    100.0    5 
16/07/18  10:20   23.7   24.3   23.7    64   16.5   6.0   SSE   0.50   7.0   SSE   23.7   24.4   24.4  1012.9  0.00  0.00   0.000   0.019   26.7    50   15.4   26.7   9.15  .0722    117    1    100.0    5 
16/07/18  10:25   23.4   23.7   23.4    65   16.4   6.0   SSE   0.50   7.0   SSE   23.4   24.1   24.1  1012.9  0.00  0.00   0.000   0.018   26.7    51   15.7   26.8   9.35  .0722    117    1    100.0    5 
16/07/18  10:30   23.1   23.4   23.1    65   16.2   5.0     S   0.42   7.0     S   23.1   23.7   23.7  1012.8  0.00  0.00   0.000   0.017   26.8    51   15.8   26.9   9.35  .0722    116    1    100.0    5 
16/07/18  10:35   23.1   23.1   23.1    64   15.9   5.0     S   0.42   7.0     S   23.1   23.6   23.6  1012.8  0.00  0.00   0.000   0.016   26.8    51   15.8   26.9   9.35  .0722    116    1    100.0    5 
16/07/18  10:40   23.1   23.1   23.1    64   15.9   6.0     S   0.50   8.0     S   23.1   23.6   23.6  1012.8  0.00  0.00   0.000   0.016   26.8    51   15.8   27.0   9.34  .0722    116    1    100.0    5 
16/07/18  10:45   23.0   23.1   22.9    64   15.8   6.0   SSW   0.50   7.0     S   23.0   23.4   23.4  1012.9  0.00  0.00   0.000   0.016   26.8    51   15.8   27.0   9.34  .0722    117    1    100.0    5 
16/07/18  10:50   23.2   23.2   22.9    64   16.0   6.0   SSW   0.50   7.0   SSW   23.2   23.7   23.7  1012.8  0.00  0.00   0.000   0.017   26.8    50   15.5   26.9   9.14  .0722    116    1    100.0    5 
16/07/18  10:55   23.3   23.3   23.2    65   16.3   6.0   SSW   0.50   8.0   SSW   23.3   23.9   23.9  1012.9  0.00  0.00   0.000   0.017   26.8    51   15.8   27.0   9.34  .0722    116    1    100.0    5 
16/07/18  11:00   23.2   23.3   23.2    67   16.8   6.0   SSW   0.50   8.0   SSW   23.2   23.9   23.9  1012.9  0.00  0.00   0.000   0.017   26.8    52   16.1   27.1   9.44  .0721    117    1    100.0    5 
16/07/18  11:05   23.1   23.2   23.1    66   16.4   6.0   SSW   0.50   8.0   SSW   23.1   23.7   23.7  1012.9  0.00  0.00   0.000   0.017   26.8    53   16.4   27.1   9.65  .0721    116    1    100.0    5 
16/07/18  11:10   23.2   23.2   23.1    67   16.7   6.0   SSW   0.50   8.0   SSW   23.2   23.8   23.8  1012.9  0.00  0.00   0.000   0.017   26.8    54   16.7   27.2   9.75  .0721    117    1    100.0    5 
16/07/18  11:15   23.2   23.2   23.2    68   17.0   7.0   SSW   0.58   8.0   SSW   23.2   23.9   23.9  1012.9  0.00  0.00   0.000   0.017   26.8    55   17.0   27.3   9.85  .0721    117    1    100.0    5 
16/07/18  11:20   23.1   23.2   23.1    67   16.6   7.0   SSW   0.58   8.0   SSW   23.1   23.7   23.7  1012.9  0.00  0.00   0.000   0.016   26.9    54   16.8   27.3   9.75  .0721    117    1    100.0    5 
16/07/18  11:25   22.9   23.0   22.9    67   16.4   6.0   SSW   0.50   8.0   SSW   22.9   23.4   23.4  1012.9  0.00  0.00   0.000   0.016   26.9    54   16.8   27.3   9.75  .0721    118    1    100.0    5 
16/07/18  11:30   23.0   23.0   22.9    68   16.8   6.0   SSW   0.50   8.0   SSW   23.0   23.6   23.6  1012.9  0.00  0.00   0.000   0.016   26.9    55   17.1   27.4   9.85  .0720    115    1    100.0    5 
16/07/18  11:35   23.1   23.1   23.0    68   16.8   6.0   SSW   0.50   8.0   SSW   23.1   23.7   23.7  1012.8  0.00  0.00   0.000   0.016   27.0    54   16.9   27.4   9.75  .0720    117    1    100.0    5 
16/07/18  11:40   23.2   23.2   23.1    68   17.0   6.0   SSW   0.50   8.0   SSW   23.2   23.9   23.9  1012.8  0.00  0.00   0.000   0.017   27.1    55   17.2   27.5   9.85  .0720    115    1    100.0    5 
16/07/18  11:45   23.6   23.6   23.2    68   17.3   5.0   SSW   0.42   7.0   SSW   23.6   24.4   24.4  1012.8  0.00  0.00   0.000   0.018   27.2    55   17.3   27.7   9.85  .0719    117    1    100.0    5 
16/07/18  11:50   23.6   23.7   23.6    67   17.1   6.0   SSW   0.50   7.0   SSW   23.6   24.4   24.4  1012.8  0.00  0.00   0.000   0.018   27.3    55   17.4   27.8   9.85  .0719    116    1    100.0    5 
16/07/18  11:55   23.4   23.6   23.4    67   17.0   7.0   SSW   0.58   9.0   SSW   23.4   24.2   24.2  1012.8  0.00  0.00   0.000   0.018   27.3    55   17.4   27.8   9.85  .0719    117    1    100.0    5 
16/07/18  12:00   23.2   23.4   23.2    67   16.7   7.0   SSW   0.58   9.0   SSW   23.2   23.8   23.8  1012.7  0.00  0.00   0.000   0.017   27.3    54   17.2   27.8   9.75  .0719    116    1    100.0    5 
16/07/18  12:05   23.2   23.2   23.1    67   16.7   8.0   SSW   0.67  10.0   SSW   22.9   23.8   23.6  1012.7  0.00  0.00   0.000   0.017   27.3    54   17.2   27.8   9.75  .0719    117    1    100.0    5 
16/07/18  12:10   23.2   23.2   23.2    68   17.0   9.0   SSW   0.75  11.0   SSW   22.5   23.9   23.2  1012.7  0.00  0.00   0.000   0.017   27.4    55   17.5   28.0   9.85  .0719    117    1    100.0    5 
16/07/18  12:15   23.0   23.2   23.0    68   16.8  10.0    SW   0.83  12.0    SW   21.8   23.6   22.4  1012.8  0.00  0.00   0.000   0.016   27.4    56   17.8   28.1  10.05  .0718    117    1    100.0    5 
16/07/18  12:20   22.7   23.0   22.7    67   16.3  11.0    SW   0.92  12.0    SW   21.3   23.2   21.8  1012.7  0.00  0.00   0.000   0.015   27.3    53   16.9   27.7   9.63  .0719    117    1    100.0    5 
16/07/18  12:25   22.8   22.8   22.7    68   16.6  11.0    SW   0.92  13.0    SW   21.4   23.3   21.9  1012.9  0.00  0.00   0.000   0.015   27.2    53   16.8   27.6   9.63  .0720    117    1    100.0    5 
16/07/18  12:30   22.8   22.9   22.8    68   16.6  11.0    SW   0.92  13.0    SW   21.4   23.4   22.0  1012.9  0.00  0.00   0.000   0.016   27.2    55   17.3   27.7   9.85  .0720    118    1    100.0    5 
16/07/18  12:35   22.4   22.8   22.4    68   16.2  11.0    SW   0.92  14.0    SW   21.0   22.8   21.4  1012.8  0.00  0.00   0.000   0.014   27.1    54   17.0   27.5   9.75  .0720    117    1    100.0    5 
16/07/18  12:40   22.6   22.7   22.4    68   16.4  10.0    SW   0.83  12.0    SW   21.4   23.1   21.9  1012.8  0.00  0.00   0.000   0.015   27.1    55   17.2   27.5   9.85  .0720    114    1    100.0    5 
16/07/18  12:45   22.6   22.7   22.6    68   16.4  11.0    SW   0.92  13.0    SW   21.2   23.0   21.6  1012.8  0.00  0.00   0.000   0.015   27.0    55   17.2   27.4   9.85  .0720    117    1    100.0    5 
16/07/18  12:50   22.4   22.6   22.4    68   16.2  11.0    SW   0.92  13.0    SW   21.0   22.8   21.4  1012.8  0.00  0.00   0.000   0.014   27.0    55   17.2   27.4   9.85  .0720    117    1    100.0    5 
16/07/18  12:55   22.4   22.6   22.4    68   16.2  11.0    SW   0.92  14.0    SW   21.0   22.8   21.4  1012.9  0.00  0.00   0.000   0.014   26.9    55   17.1   27.4   9.85  .0720    117    1    100.0    5 
16/07/18  13:00   22.4   22.6   22.4    68   16.2  11.0    SW   0.92  13.0    SW   20.9   22.8   21.3  1012.9  0.00  0.00   0.000   0.014   26.9    55   17.1   27.3   9.85  .0720    117    1    100.0    5 
16/07/18  13:05   22.4   22.4   22.2    68   16.2  11.0    SW   0.92  15.0    SW   21.0   22.8   21.4  1012.8  0.00  0.00   0.000   0.014   26.9    55   17.1   27.3   9.85  .0720    116    1    100.0    5 
16/07/18  13:10   22.2   22.4   22.2    68   16.0  12.0    SW   1.00  15.0    SW   20.6   22.5   20.8  1012.9  0.00  0.00   0.000   0.014   26.8    54   16.7   27.2   9.75  .0721    116    1    100.0    5 
16/07/18  13:15   22.3   22.3   22.2    68   16.1  12.0    SW   1.00  15.0    SW   20.6   22.6   20.9  1012.9  0.00  0.00   0.000   0.014   26.8    55   17.0   27.2   9.85  .0721    116    1    100.0    5 
16/07/18  13:20   22.5   22.6   22.3    68   16.3  13.0    SW   1.08  15.0    SW   20.7   22.9   21.1  1012.8  0.00  0.00   0.000   0.014   26.8    56   17.3   27.3  10.05  .0721    116    1    100.0    5 
16/07/18  13:25   22.3   22.5   22.3    68   16.1  12.0    SW   1.00  16.0    SW   20.7   22.7   21.0  1012.7  0.00  0.00   0.000   0.014   26.7    55   16.9   27.1   9.85  .0721    116    1    100.0    5 
16/07/18  13:30   22.3   22.3   22.3    68   16.1  14.0    SW   1.17  16.0    SW   20.2   22.6   20.5  1012.7  0.00  0.00   0.000   0.014   26.7    56   17.2   27.2  10.05  .0721    118    1    100.0    5 
16/07/18  13:35   22.2   22.3   22.2    68   16.0  13.0    SW   1.08  16.0    SW   20.3   22.4   20.6  1012.9  0.00  0.00   0.000   0.013   26.7    56   17.2   27.1  10.05  .0721    116    1    100.0    5 
16/07/18  13:40   22.2   22.2   22.1    69   16.3  13.0    SW   1.08  16.0    SW   20.3   22.6   20.7  1012.7  0.00  0.00   0.000   0.014   26.7    57   17.4   27.2  10.15  .0721    117    1    100.0    5 
16/07/18  13:45   22.2   22.3   22.2    68   16.0  13.0    SW   1.08  16.0    SW   20.3   22.4   20.6  1012.7  0.00  0.00   0.000   0.013   26.7    56   17.2   27.1  10.05  .0721    117    1    100.0    5 
16/07/18  13:50   22.2   22.2   22.1    68   16.0  12.0    SW   1.00  15.0    SW   20.5   22.4   20.8  1012.7  0.00  0.00   0.000   0.013   26.6    56   17.1   27.1  10.05  .0721    116    1    100.0    5 
16/07/18  13:55   22.1   22.2   22.0    68   15.9  12.0    SW   1.00  14.0    SW   20.4   22.3   20.6  1012.7  0.00  0.00   0.000   0.013   26.6    55   16.8   27.0   9.85  .0721    117    1    100.0    5 
16/07/18  14:00   22.2   22.2   22.0    68   16.0  12.0    SW   1.00  15.0    SW   20.5   22.4   20.8  1012.7  0.00  0.00   0.000   0.013   26.6    55   16.8   27.0   9.85  .0721    117    1    100.0    5 
16/07/18  14:05   22.1   22.2   22.1    67   15.7  14.0    SW   1.17  16.0    SW   20.0   22.3   20.2  1012.8  0.00  0.00   0.000   0.013   26.7    54   16.6   27.0   9.75  .0721    117    1    100.0    5 
16/07/18  14:10   22.2   22.2   22.1    68   16.0  12.0    SW   1.00  16.0    SW   20.6   22.5   20.8  1012.7  0.00  0.00   0.000   0.014   26.6    55   16.8   27.0   9.85  .0721    116    1    100.0    5 
16/07/18  14:15   22.1   22.3   22.1    68   15.9  14.0    SW   1.17  17.0    SW   20.0   22.4   20.3  1012.7  0.00  0.00   0.000   0.013   26.6    55   16.8   27.0   9.85  .0721    116    1    100.0    5 
16/07/18  14:20   22.0   22.1   21.9    69   16.0  13.0    SW   1.08  17.0    SW   20.1   22.3   20.4  1012.6  0.00  0.00   0.000   0.013   26.6    55   16.8   27.0   9.85  .0721    116    1    100.0    5 
16/07/18  14:25   22.0   22.1   22.0    67   15.6  14.0    SW   1.17  17.0    SW   19.9   22.2   20.1  1012.6  0.00  0.00   0.000   0.013   26.6    55   16.8   27.0   9.85  .0721    117    1    100.0    5 
16/07/18  14:30   22.2   22.2   21.9    66   15.5  14.0    SW   1.17  17.0    SW   20.1   22.3   20.2  1012.5  0.00  0.00   0.000   0.013   26.6    54   16.5   26.9   9.75  .0721    116    1    100.0    5 
16/07/18  14:35   22.2   22.3   22.2    68   16.0  13.0    SW   1.08  18.0    SW   20.3   22.5   20.6  1012.5  0.00  0.00   0.000   0.014   26.6    54   16.5   26.9   9.75  .0722    118    1    100.0    5 
16/07/18  14:40   22.2   22.2   22.2    67   15.7  14.0    SW   1.17  17.0    SW   20.1   22.4   20.3  1012.6  0.00  0.00   0.000   0.013   26.6    54   16.5   26.9   9.75  .0721    117    1    100.0    5 
16/07/18  14:45   22.3   22.3   22.2    67   15.9  14.0    SW   1.17  17.0    SW   20.2   22.6   20.4  1012.5  0.00  0.00   0.000   0.014   26.6    54   16.5   26.9   9.75  .0721    117    1    100.0    5 
16/07/18  14:50   22.4   22.4   22.3    67   16.0  14.0    SW   1.17  18.0    SW   20.3   22.8   20.7  1012.6  0.00  0.00   0.000   0.014   26.6    54   16.5   26.9   9.75  .0721    116    1    100.0    5 
16/07/18  14:55   22.3   22.5   22.3    67   15.9  16.0    SW   1.33  21.0    SW   19.8   22.6   20.1  1012.5  0.00  0.00   0.000   0.014   26.7    54   16.6   27.0   9.75  .0721    116    1    100.0    5 
16/07/18  15:00   21.9   22.3   21.9    68   15.8  17.0    SW   1.42  22.0    SW   19.3   22.2   19.6  1012.5  0.00  0.00   0.000   0.013   26.6    54   16.5   26.9   9.75  .0721    117    1    100.0    5 
16/07/18  15:05   22.1   22.1   21.9    68   15.9  17.0   WSW   1.42  21.0   WSW   19.4   22.3   19.7  1012.4  0.00  0.00   0.000   0.013   26.6    55   16.8   26.9   9.86  .0721    117    1    100.0    5 
16/07/18  15:10   21.7   22.1   21.7    68   15.6  18.0   WSW   1.50  21.0   WSW   18.9   21.8   19.1  1012.4  0.00  0.00   0.000   0.012   26.5    55   16.7   26.9   9.86  .0721    115    1    100.0    5 
16/07/18  15:15   21.7   21.8   21.7    69   15.7  17.0   WSW   1.42  20.0    SW   19.0   21.8   19.2  1012.4  0.00  0.00   0.000   0.012   26.4    55   16.7   26.8   9.87  .0722    116    1    100.0    5 
16/07/18  15:20   21.8   21.9   21.7    68   15.7  16.0   WSW   1.33  19.0   WSW   19.3   22.0   19.5  1012.4  0.00  0.00   0.000   0.012   26.4    56   16.9   26.8  10.07  .0721    116    1    100.0    5 
16/07/18  15:25   21.9   22.0   21.8    67   15.5  16.0   WSW   1.33  20.0   WSW   19.5   22.1   19.7  1012.3  0.00  0.00   0.000   0.013   26.4    55   16.6   26.7   9.87  .0722    116    1    100.0    5 
16/07/18  15:30   22.1   22.1   21.9    68   15.9  15.0   WSW   1.25  19.0   WSW   19.8   22.3   20.0  1012.3  0.00  0.00   0.000   0.013   26.3    55   16.6   26.7   9.87  .0722    117    1    100.0    5 
16/07/18  15:35   22.2   22.2   22.1    68   16.0  14.0   WSW   1.17  17.0   WSW   20.1   22.4   20.3  1012.3  0.00  0.00   0.000   0.013   26.3    56   16.9   26.7  10.07  .0722    117    1    100.0    5 
16/07/18  15:40   21.8   22.2   21.8    68   15.7  15.0   WSW   1.25  18.0   WSW   19.5   22.0   19.7  1012.3  0.00  0.00   0.000   0.012   26.3    55   16.6   26.7   9.87  .0722    118    1    100.0    5 
16/07/18  15:45   21.9   22.0   21.8    68   15.8  14.0   WSW   1.17  18.0   WSW   19.8   22.2   20.1  1012.3  0.00  0.00   0.000   0.013   26.4    55   16.6   26.7   9.87  .0722    117    1    100.0    5 
16/07/18  15:50   21.9   21.9   21.9    68   15.7  15.0   WSW   1.25  18.0   WSW   19.6   22.1   19.7  1012.3  0.00  0.00   0.000   0.012   26.3    56   16.9   26.7  10.07  .0722    117    1    100.0    5 
16/07/18  15:55   21.7   21.8   21.7    68   15.6  14.0   WSW   1.17  18.0   WSW   19.6   21.8   19.7  1012.3  0.00  0.00   0.000   0.012   26.3    55   16.6   26.7   9.87  .0722    116    1    100.0    5 
16/07/18  16:00   21.6   21.7   21.6    68   15.4  14.0   WSW   1.17  17.0   WSW   19.5   21.7   19.6  1012.3  0.00  0.00   0.000   0.011   26.3    56   16.9   26.7  10.07  .0722    116    1    100.0    5 
16/07/18  16:05   21.5   21.6   21.5    68   15.3  15.0   WSW   1.25  18.0   WSW   19.2   21.6   19.2  1012.3  0.00  0.00   0.000   0.011   26.3    55   16.5   26.6   9.88  .0722    117    1    100.0    5 
16/07/18  16:10   21.5   21.5   21.4    68   15.3  17.0   WSW   1.42  21.0   WSW   18.8   21.6   18.9  1012.2  0.00  0.00   0.000   0.011   26.2    55   16.4   26.5   9.89  .0722    116    1    100.0    5 
16/07/18  16:15   21.4   21.5   21.3    69   15.5  14.0   WSW   1.17  16.0   WSW   19.3   21.6   19.4  1012.3  0.00  0.00   0.000   0.011   26.1    56   16.6   26.5  10.09  .0722    117    1    100.0    5 
16/07/18  16:20   21.5   21.6   21.5    69   15.6  14.0   WSW   1.17  17.0   WSW   19.4   21.6   19.5  1012.4  0.00  0.00   0.000   0.011   26.1    56   16.6   26.5  10.09  .0722    116    1    100.0    5 
16/07/18  16:25   21.2   21.5   21.2    69   15.3  14.0   WSW   1.17  18.0   WSW   19.0   21.2   19.0  1012.3  0.00  0.00   0.000   0.010   26.1    55   16.3   26.4   9.89  .0723    116    1    100.0    5 
16/07/18  16:30   21.3   21.3   21.2    69   15.4  15.0   WSW   1.25  18.0   WSW   18.9   21.4   19.0  1012.3  0.00  0.00   0.000   0.010   26.0    55   16.3   26.3   9.90  .0723    117    1    100.0    5 
16/07/18  16:35   21.7   21.7   21.3    69   15.8  14.0    SW   1.17  17.0    SW   19.6   21.9   19.8  1012.3  0.00  0.00   0.000   0.012   25.9    57   16.8   26.4  10.20  .0723    117    1    100.0    5 
16/07/18  16:40   21.8   21.8   21.8    68   15.6  14.0    SW   1.17  17.0    SW   19.7   21.9   19.8  1012.3  0.00  0.00   0.000   0.012   25.9    57   16.8   26.4  10.20  .0723    118    1    100.0    5 
16/07/18  16:45   21.6   21.8   21.6    68   15.4  15.0    SW   1.25  18.0   WSW   19.3   21.7   19.4  1012.3  0.00  0.00   0.000   0.011   26.0    57   16.8   26.4  10.20  .0722    117    1    100.0    5 
16/07/18  16:50   21.7   21.7   21.6    68   15.5  14.0    SW   1.17  18.0   WSW   19.6   21.8   19.7  1012.3  0.00  0.00   0.000   0.012   26.0    57   16.8   26.4  10.20  .0722    117    1    100.0    5 
16/07/18  16:55   21.7   21.7   21.7    68   15.6  13.0    SW   1.08  16.0   WSW   19.8   21.8   19.9  1012.3  0.00  0.00   0.000   0.012   26.1    56   16.6   26.4  10.09  .0722    117    1    100.0    5 
16/07/18  17:00   21.8   21.8   21.7    69   15.8  14.0    SW   1.17  17.0   WSW   19.7   22.0   19.9  1012.2  0.00  0.00   0.000   0.012   26.1    56   16.6   26.4  10.09  .0722    117    1    100.0    5 
16/07/18  17:05   21.7   21.8   21.7    69   15.8  14.0    SW   1.17  17.0   WSW   19.6   21.9   19.8  1012.2  0.00  0.00   0.000   0.012   26.1    56   16.6   26.4  10.09  .0722    116    1    100.0    5 
16/07/18  17:10   21.6   21.7   21.6    68   15.4  14.0    SW   1.17  18.0    SW   19.4   21.6   19.5  1012.1  0.00  0.00   0.000   0.011   26.1    56   16.6   26.4  10.09  .0722    117    1    100.0    5 
16/07/18  17:15   21.2   21.6   21.2    69   15.3  14.0    SW   1.17  17.0   WSW   19.0   21.2   19.0  1012.1  0.00  0.00   0.000   0.010   26.0    57   16.8   26.4  10.20  .0722    115    1    100.0    5 
16/07/18  17:20   21.1   21.2   21.1    69   15.2  14.0    SW   1.17  17.0    SW   18.9   21.1   18.9  1012.1  0.00  0.00   0.000   0.010   25.9    57   16.8   26.4  10.20  .0722    117    1    100.0    5 
16/07/18  17:25   21.3   21.3   21.1    69   15.4  14.0   WSW   1.17  18.0   WSW   19.1   21.3   19.2  1012.1  0.00  0.00   0.000   0.010   25.9    56   16.4   26.3  10.11  .0723    117    1    100.0    5 
16/07/18  17:30   21.6   21.6   21.3    68   15.4  13.0   WSW   1.08  16.0   WSW   19.7   21.7   19.8  1012.0  0.00  0.00   0.000   0.011   25.9    57   16.7   26.3  10.21  .0723    117    1    100.0    5 
16/07/18  17:35   21.8   21.8   21.6    68   15.6  14.0   WSW   1.17  17.0   WSW   19.7   21.9   19.8  1012.0  0.00  0.00   0.000   0.012   25.8    57   16.7   26.2  10.21  .0723    117    1    100.0    5 
16/07/18  17:40   21.9   21.9   21.8    67   15.5  14.0   WSW   1.17  18.0   WSW   19.8   22.1   20.0  1011.9  0.00  0.00   0.000   0.013   25.8    57   16.7   26.2  10.21  .0723    117    1    100.0    5 
16/07/18  17:45   22.2   22.2   21.9    68   16.0  14.0   WSW   1.17  17.0    SW   20.1   22.4   20.3  1011.8  0.00  0.00   0.000   0.013   25.9    57   16.7   26.3  10.21  .0722    118    1    100.0    5 
16/07/18  17:50   22.1   22.2   22.1    68   15.9  14.0    SW   1.17  18.0    SW   20.0   22.4   20.3  1011.9  0.00  0.00   0.000   0.013   25.9    57   16.8   26.4  10.20  .0722    117    1    100.0    5 
16/07/18  17:55   21.7   22.1   21.7    69   15.7  16.0   WSW   1.33  18.0   WSW   19.2   21.8   19.3  1011.8  0.00  0.00   0.000   0.012   25.9    57   16.8   26.4  10.20  .0722    117    1    100.0    5 
16/07/18  18:00   21.4   21.7   21.4    69   15.5  15.0    SW   1.25  18.0    SW   19.1   21.6   19.2  1011.9  0.00  0.00   0.000   0.011   25.9    58   17.0   26.3  10.41  .0722    117    1    100.0    5 
16/07/18  18:05   21.4   21.4   21.3    69   15.5  15.0    SW   1.25  18.0    SW   19.1   21.5   19.2  1011.9  0.00  0.00   0.000   0.011   25.8    58   16.9   26.3  10.41  .0722    114    1    100.0    5 
16/07/18  18:10   21.4   21.4   21.4    69   15.5  15.0   WSW   1.25  19.0   WSW   19.1   21.6   19.2  1011.8  0.00  0.00   0.000   0.011   25.8    57   16.7   26.2  10.21  .0723    117    1    100.0    5 
16/07/18  18:15   21.6   21.6   21.4    68   15.4  15.0   WSW   1.25  18.0   WSW   19.3   21.7   19.4  1012.0  0.00  0.00   0.000   0.011   25.8    57   16.6   26.2  10.21  .0723    116    1    100.0    5 
16/07/18  18:20   21.8   21.8   21.6    68   15.6  16.0   WSW   1.33  19.0   WSW   19.3   21.9   19.4  1011.8  0.00  0.00   0.000   0.012   25.8    56   16.3   26.1  10.11  .0723    117    1    100.0    5 
16/07/18  18:25   21.7   21.8   21.7    68   15.6  16.0   WSW   1.33  19.0   WSW   19.2   21.8   19.3  1011.9  0.00  0.00   0.000   0.012   25.8    56   16.3   26.1  10.11  .0723    117    1    100.0    5 
16/07/18  18:30   21.7   21.8   21.7    68   15.5  16.0   WSW   1.33  20.0   WSW   19.2   21.8   19.3  1011.9  0.00  0.00   0.000   0.012   25.7    57   16.6   26.1  10.22  .0723    117    1    100.0    5 
16/07/18  18:35   21.4   21.7   21.4    69   15.5  16.0   WSW   1.33  19.0    SW   18.9   21.6   19.1  1011.9  0.00  0.00   0.000   0.011   25.7    57   16.6   26.1  10.22  .0723    117    1    100.0    5 
16/07/18  18:40   21.4   21.4   21.3    69   15.5  16.0   WSW   1.33  19.0   WSW   18.9   21.5   19.0  1012.0  0.00  0.00   0.000   0.011   25.7    57   16.5   26.1  10.22  .0723    117    1    100.0    5 
16/07/18  18:45   21.4   21.4   21.4    69   15.5  15.0   WSW   1.25  18.0   WSW   19.1   21.6   19.2  1012.1  0.00  0.00   0.000   0.011   25.6    58   16.7   26.1  10.43  .0723    118    1    100.0    5 
16/07/18  18:50   21.3   21.4   21.3    69   15.4  16.0    SW   1.33  19.0   WSW   18.8   21.4   18.8  1012.0  0.00  0.00   0.000   0.010   25.6    58   16.7   25.9  10.43  .0723    117    1    100.0    5 
16/07/18  18:55   21.2   21.4   21.2    69   15.3  17.0   WSW   1.42  21.0   WSW   18.6   21.3   18.6  1012.1  0.00  0.00   0.000   0.010   25.6    59   16.9   26.0  10.63  .0723    116    1    100.0    5 
16/07/18  19:00   20.9   21.2   20.9    69   15.0  18.0   WSW   1.50  21.0   WSW   18.1   20.9   18.1  1012.0  0.00  0.00   0.000   0.009   25.5    59   16.9   25.9  10.63  .0723    117    1    100.0    5 
16/07/18  19:05   21.0   21.0   20.8    70   15.3  15.0   WSW   1.25  20.0   WSW   18.6   21.1   18.7  1012.1  0.00  0.00   0.000   0.009   25.4    60   17.1   25.9  10.84  .0723    117    1    100.0    5 
16/07/18  19:10   20.8   21.0   20.8    71   15.4  15.0   WSW   1.25  20.0    SW   18.4   21.1   18.7  1012.1  0.00  0.00   0.000   0.009   25.4    61   17.3   25.9  11.00  .0723    117    1    100.0    5 
16/07/18  19:15   20.8   20.9   20.8    70   15.2  16.0   WSW   1.33  20.0   WSW   18.3   21.0   18.4  1012.1  0.00  0.00   0.000   0.009   25.3    60   17.0   25.8  10.85  .0724    115    1    100.0    5 
16/07/18  19:20   20.8   20.8   20.8    69   14.9  17.0   WSW   1.42  21.0   WSW   18.2   20.9   18.3  1012.1  0.00  0.00   0.000   0.009   25.3    60   17.0   25.8  10.85  .0724    116    1    100.0    5 
16/07/18  19:25   20.9   20.9   20.8    69   15.0  16.0   WSW   1.33  20.0   WSW   18.4   21.0   18.4  1012.2  0.00  0.00   0.000   0.009   25.2    60   16.9   25.7  10.85  .0724    115    1    100.0    5 
16/07/18  19:30   20.8   20.9   20.8    69   14.9  17.0   WSW   1.42  20.0   WSW   18.2   20.9   18.3  1012.1  0.00  0.00   0.000   0.009   25.2    60   16.9   25.7  10.85  .0724    116    1    100.0    5 
16/07/18  19:35   20.8   20.8   20.8    70   15.1  16.0   WSW   1.33  19.0   WSW   18.2   20.9   18.4  1012.0  0.00  0.00   0.000   0.008   25.2    59   16.6   25.6  10.65  .0724    117    1    100.0    5 
16/07/18  19:40   20.8   20.8   20.8    70   15.1  17.0   WSW   1.42  20.0   WSW   18.1   20.9   18.2  1012.0  0.00  0.00   0.000   0.008   25.2    60   16.9   25.6  10.86  .0724    115    1    100.0    5 
16/07/18  19:45   20.8   20.8   20.7    70   15.2  14.0   WSW   1.17  20.0   WSW   18.7   21.0   18.8  1012.1  0.00  0.00   0.000   0.009   25.2    60   16.9   25.6  10.86  .0724    117    1    100.0    5 
16/07/18  19:50   20.6   20.8   20.6    71   15.2  17.0   WSW   1.42  20.0   WSW   17.9   20.9   18.2  1012.0  0.00  0.00   0.000   0.008   25.2    60   16.9   25.6  10.86  .0724    118    1    100.0    5 
16/07/18  19:55   20.5   20.6   20.5    72   15.3  16.0    SW   1.33  20.0   WSW   17.9   20.8   18.3  1012.0  0.00  0.00   0.000   0.008   25.1    61   17.1   25.6  11.01  .0724    117    1    100.0    5 
16/07/18  20:00   20.4   20.5   20.4    73   15.4  16.0   WSW   1.33  20.0    SW   17.9   20.9   18.3  1012.1  0.00  0.00   0.000   0.007   25.0    62   17.2   25.6  11.21  .0724    116    1    100.0    5 
16/07/18  20:05   20.3   20.4   20.3    74   15.5  17.0    SW   1.42  20.0    SW   17.6   20.8   18.1  1012.1  0.00  0.00   0.000   0.007   24.9    63   17.4   25.6  11.41  .0724    117    1    100.0    5 
16/07/18  20:10   20.2   20.3   20.2    74   15.4  17.0   WSW   1.42  21.0   WSW   17.4   20.7   17.9  1012.1  0.00  0.00   0.000   0.007   24.9    63   17.4   25.5  11.41  .0724    116    1    100.0    5 
16/07/18  20:15   20.2   20.3   20.2    74   15.4  17.0   WSW   1.42  21.0   WSW   17.4   20.7   17.9  1012.1  0.00  0.00   0.000   0.007   24.8    63   17.3   25.4  11.42  .0725    117    1    100.0    5 
16/07/18  20:20   20.3   20.3   20.2    75   15.7  15.0   WSW   1.25  19.0   WSW   17.9   20.8   18.4  1012.1  0.00  0.00   0.000   0.007   24.8    64   17.5   25.4  11.62  .0725    117    1    100.0    5 
16/07/18  20:25   20.2   20.3   20.2    75   15.6  16.0   WSW   1.33  19.0   WSW   17.6   20.7   18.1  1012.1  0.00  0.00   0.000   0.007   24.7    64   17.5   25.4  11.62  .0725    116    1    100.0    5 
16/07/18  20:30   20.2   20.2   20.2    74   15.4  13.0   WSW   1.08  17.0    SW   18.2   20.7   18.7  1012.2  0.00  0.00   0.000   0.006   24.7    63   17.2   25.3  11.42  .0725    117    1    100.0    5 
16/07/18  20:35   20.2   20.3   20.2    74   15.4  12.0   WSW   1.00  17.0   WSW   18.5   20.7   19.0  1012.2  0.00  0.00   0.000   0.007   24.8    64   17.5   25.4  11.62  .0725    115    1    100.0    5 
16/07/18  20:40   20.2   20.2   20.2    75   15.6  14.0   WSW   1.17  18.0    SW   18.0   20.7   18.5  1012.2  0.00  0.00   0.000   0.007   24.7    64   17.5   25.4  11.62  .0725    116    1    100.0    5 
16/07/18  20:45   20.0   20.2   20.0    75   15.4  14.0   WSW   1.17  18.0   WSW   17.8   20.5   18.3  1012.3  0.00  0.00   0.000   0.006   24.7    63   17.2   25.2  11.42  .0725    117    1    100.0    5 
16/07/18  20:50   19.9   20.0   19.9    76   15.5  15.0   WSW   1.25  18.0   WSW   17.4   20.4   17.9  1012.3  0.00  0.00   0.000   0.005   24.7    64   17.4   25.3  11.62  .0725    116    1    100.0    5 
16/07/18  20:55   19.8   19.9   19.8    77   15.7  14.0   WSW   1.17  20.0   WSW   17.6   20.4   18.2  1012.3  0.00  0.00   0.000   0.005   24.6    65   17.5   25.2  11.83  .0725    118    1    100.0    5 
16/07/18  21:00   19.7   19.8   19.7    77   15.6  12.0   WSW   1.00  16.0   WSW   18.0   20.3   18.6  1012.4  0.00  0.00   0.000   0.005   24.5    65   17.5   25.2  11.83  .0726    115    1    100.0    5 
16/07/18  21:05   19.7   19.7   19.7    77   15.6  12.0   WSW   1.00  18.0   WSW   18.0   20.3   18.6  1012.4  0.00  0.00   0.000   0.005   24.6    64   17.3   25.2  11.63  .0726    117    1    100.0    5 
16/07/18  21:10   19.7   19.8   19.7    77   15.6  11.0   WSW   0.92  15.0   WSW   18.3   20.3   18.8  1012.5  0.00  0.00   0.000   0.005   24.6    64   17.3   25.2  11.63  .0726    116    1    100.0    5 
16/07/18  21:15   19.7   19.7   19.7    76   15.3  10.0   WSW   0.83  17.0   WSW   18.6   20.2   19.1  1012.6  0.00  0.00   0.000   0.005   24.6    64   17.3   25.2  11.62  .0726    116    1    100.0    5 
16/07/18  21:20   19.7   19.7   19.6    76   15.3   9.0   WSW   0.75  14.0   WSW   18.9   20.2   19.4  1012.7  0.00  0.00   0.000   0.005   24.7    63   17.2   25.2  11.42  .0726    117    1    100.0    5 
16/07/18  21:25   19.7   19.7   19.7    76   15.3  11.0   WSW   0.92  14.0   WSW   18.2   20.2   18.7  1012.6  0.00  0.00   0.000   0.005   24.7    63   17.2   25.2  11.42  .0726    117    1    100.0    5 
16/07/18  21:30   19.7   19.7   19.7    77   15.6  11.0   WSW   0.92  15.0   WSW   18.3   20.3   18.8  1012.7  0.00  0.00   0.000   0.005   24.7    63   17.2   25.3  11.42  .0725    117    1    100.0    5 
16/07/18  21:35   19.7   19.7   19.7    77   15.6  14.0   WSW   1.17  18.0   WSW   17.5   20.3   18.1  1012.7  0.00  0.00   0.000   0.005   24.7    65   17.6   25.3  11.82  .0725    117    1    100.0    5 
16/07/18  21:40   19.7   19.7   19.7    77   15.5  12.0   WSW   1.00  17.0   WSW   17.9   20.2   18.4  1012.8  0.00  0.00   0.000   0.005   24.6    65   17.5   25.2  11.83  .0726    117    1    100.0    5 
16/07/18  21:45   19.6   19.7   19.6    77   15.5  12.0   WSW   1.00  18.0   WSW   17.8   20.1   18.3  1012.8  0.00  0.00   0.000   0.004   24.5    65   17.5   25.2  11.83  .0726    116    1    100.0    5 
16/07/18  21:50   19.6   19.6   19.6    77   15.4   9.0   WSW   0.75  14.0     W   18.8   20.1   19.3  1012.8  0.00  0.00   0.000   0.004   24.6    64   17.3   25.2  11.63  .0726    117    1    100.0    5 
16/07/18  21:55   19.5   19.6   19.5    77   15.4   9.0   WSW   0.75  14.0   WSW   18.8   20.0   19.3  1012.9  0.00  0.00   0.000   0.004   24.6    64   17.3   25.2  11.62  .0726    118    1    100.0    5 
16/07/18  22:00   19.5   19.5   19.5    77   15.4   7.0     W   0.58  12.0   WSW   19.5   20.0   20.0  1013.0  0.00  0.00   0.000   0.004   24.7    64   17.4   25.3  11.62  .0726    117    1    100.0    5 
16/07/18  22:05   19.5   19.5   19.5    77   15.4   5.0     W   0.42   9.0     W   19.5   20.0   20.0  1013.1  0.00  0.00   0.000   0.004   24.7    64   17.4   25.3  11.62  .0726    116    1    100.0    5 
16/07/18  22:10   19.4   19.5   19.4    77   15.3   7.0     W   0.58  12.0   WSW   19.4   19.9   19.9  1013.0  0.00  0.00   0.000   0.004   24.8    63   17.3   25.4  11.42  .0726    117    1    100.0    5 
16/07/18  22:15   19.4   19.4   19.4    77   15.3   5.0     W   0.42  10.0     W   19.4   19.9   19.9  1013.1  0.00  0.00   0.000   0.004   24.9    63   17.4   25.5  11.41  .0725    116    1    100.0    5 
16/07/18  22:20   19.4   19.4   19.4    77   15.3   6.0     W   0.50  11.0     W   19.4   19.8   19.8  1013.1  0.00  0.00   0.000   0.004   24.9    62   17.2   25.5  11.21  .0725    116    1    100.0    5 
16/07/18  22:25   19.3   19.4   19.3    77   15.2   5.0     W   0.42  10.0     W   19.3   19.8   19.8  1013.1  0.00  0.00   0.000   0.003   24.9    62   17.1   25.4  11.21  .0725    117    1    100.0    5 
16/07/18  22:30   19.3   19.3   19.3    77   15.2   8.0     W   0.67  13.0     W   19.0   19.8   19.4  1013.2  0.00  0.00   0.000   0.003   24.9    62   17.1   25.4  11.21  .0725    117    1    100.0    5 
16/07/18  22:35   19.3   19.3   19.3    77   15.1   8.0     W   0.67  14.0     W   18.9   19.7   19.4  1013.1  0.00  0.00   0.000   0.003   24.8    62   17.1   25.4  11.22  .0726    116    1    100.0    5 
16/07/18  22:40   19.3   19.3   19.3    77   15.1   7.0     W   0.58  13.0     W   19.3   19.7   19.7  1013.2  0.00  0.00   0.000   0.003   24.8    62   17.1   25.4  11.22  .0726    116    1    100.0    5 
16/07/18  22:45   19.3   19.3   19.3    77   15.1   7.0     W   0.58  12.0     W   19.3   19.7   19.7  1013.2  0.00  0.00   0.000   0.003   24.8    62   17.0   25.3  11.22  .0726    117    1    100.0    5 
16/07/18  22:50   19.2   19.3   19.2    77   15.1   5.0     W   0.42   9.0     W   19.2   19.7   19.7  1013.2  0.00  0.00   0.000   0.003   24.8    62   17.0   25.3  11.22  .0726    116    1    100.0    5 
16/07/18  22:55   19.2   19.2   19.2    77   15.0   4.0     W   0.33   7.0     W   19.2   19.6   19.6  1013.2  0.00  0.00   0.000   0.003   24.7    62   16.9   25.2  11.22  .0726    117    1    100.0    5 
16/07/18  23:00   19.1   19.2   19.1    77   15.0   5.0     W   0.42   8.0     W   19.1   19.5   19.5  1013.1  0.00  0.00   0.000   0.003   24.7    62   16.9   25.2  11.22  .0726    118    1    100.0    5 
16/07/18  23:05   19.1   19.1   19.1    77   14.9   5.0     W   0.42   8.0   WSW   19.1   19.4   19.4  1013.2  0.00  0.00   0.000   0.003   24.7    62   16.9   25.2  11.22  .0726    117    1    100.0    5 
16/07/18  23:10   19.0   19.1   19.0    77   14.9   6.0     W   0.50   9.0     W   19.0   19.4   19.4  1013.2  0.00  0.00   0.000   0.002   24.7    62   16.9   25.2  11.22  .0726    117    1    100.0    5 
16/07/18  23:15   18.9   19.0   18.9    77   14.8   5.0     W   0.42   9.0     W   18.9   19.3   19.3  1013.2  0.00  0.00   0.000   0.002   24.6    62   16.8   25.1  11.22  .0726    117    1    100.0    5 
16/07/18  23:20   18.9   18.9   18.9    77   14.8   5.0     W   0.42   8.0     W   18.9   19.3   19.3  1013.2  0.00  0.00   0.000   0.002   24.6    62   16.8   25.1  11.22  .0726    116    1    100.0    5 
16/07/18  23:25   18.9   18.9   18.9    77   14.8   5.0     W   0.42   8.0     W   18.9   19.3   19.3  1013.2  0.00  0.00   0.000   0.002   24.6    62   16.8   25.1  11.22  .0726    117    1    100.0    5 
16/07/18  23:30   18.9   18.9   18.9    77   14.8   2.0     W   0.17   7.0     W   18.9   19.3   19.3  1013.3  0.00  0.00   0.000   0.002   24.6    62   16.8   25.1  11.23  .0727    116    1    100.0    5 
16/07/18  23:35   18.8   18.9   18.8    78   14.9   3.0     W   0.25   6.0     W   18.8   19.2   19.2  1013.3  0.00  0.00   0.000   0.002   24.6    63   17.0   25.1  11.43  .0726    115    1    100.0    5 
16/07/18  23:40   18.8   18.8   18.8    78   14.9   4.0     W   0.33   7.0     W   18.8   19.2   19.2  1013.4  0.00  0.00   0.000   0.002   24.5    63   17.0   25.1  11.43  .0727    117    1    100.0    5 
16/07/18  23:45   18.8   18.8   18.8    78   14.9   2.0     W   0.17   5.0     W   18.8   19.2   19.2  1013.5  0.00  0.00   0.000   0.002   24.5    63   17.0   25.1  11.43  .0727    115    1    100.0    5 
16/07/18  23:50   18.7   18.8   18.7    78   14.8   2.0     W   0.17   5.0     W   18.7   19.1   19.1  1013.4  0.00  0.00   0.000   0.001   24.4    63   16.9   25.0  11.43  .0727    117    1    100.0    5 
16/07/18  23:55   18.7   18.7   18.7    78   14.8   4.0     W   0.33   6.0     W   18.7   19.1   19.1  1013.4  0.00  0.00   0.000   0.001   24.4    63   16.9   25.0  11.43  .0727    117    1    100.0    5 
17/07/18  00:00   18.6   18.7   18.6    78   14.7   1.0     W   0.08   5.0     W   18.6   18.9   18.9  1013.5  0.00  0.00   0.000   0.001   24.4    63   16.9   25.0  11.43  .0727    116    1    100.0    5 
17/07/18   0:05   18.6   18.6   18.6    78   14.6   3.0     W   0.25   7.0     W   18.6   18.9   18.9  1013.6  0.00  0.00   0.000   0.001   24.4    63   16.9   25.0  11.43  .0727    115    1    100.0    5 
17/07/18   0:10   18.6   18.6   18.6    78   14.6   4.0   WNW   0.33   8.0   WNW   18.6   18.9   18.9  1013.7  0.00  0.00   0.000   0.001   24.4    62   16.7   24.9  11.23  .0727    117    1    100.0    5 
17/07/18   0:15   18.4   18.6   18.4    78   14.5   4.0   WNW   0.33   8.0   WNW   18.4   18.8   18.8  1013.7  0.00  0.00   0.000   0.000   24.4    62   16.7   24.9  11.23  .0727    116    1    100.0    5 
17/07/18   0:20   18.3   18.4   18.3    78   14.4   4.0    NW   0.33   8.0    NW   18.3   18.6   18.6  1013.7  0.00  0.00   0.000   0.000   24.4    62   16.6   24.9  11.23  .0728    117    1    100.0    5 
17/07/18   0:25   17.9   18.3   17.9    75   13.4   7.0   WNW   0.58  13.0   WNW   17.9   18.1   18.1  1013.8  0.00  0.00   0.001   0.000   24.4    61   16.4   24.8  11.03  .0728    118    1    100.0    5 
17/07/18   0:30   17.7   17.9   17.7    74   13.0   9.0    NW   0.75  15.0    NW   16.8   17.7   16.8  1013.9  0.00  0.00   0.002   0.000   24.4    58   15.6   24.7  10.51  .0729    117    1    100.0    5 
17/07/18   0:35   17.6   17.7   17.6    71   12.3  11.0    NW   0.92  17.0    NW   15.9   17.5   15.8  1013.9  0.00  0.00   0.003   0.000   24.3    54   14.4   24.4   9.84  .0730    117    1    100.0    5 
17/07/18   0:40   17.7   17.7   17.6    69   11.9   8.0   WNW   0.67  12.0   WNW   17.2   17.5   17.1  1013.9  0.00  0.00   0.002   0.000   24.2    53   14.0   24.3   9.65  .0730    116    1    100.0    5 
17/07/18   0:45   17.7   17.7   17.7    67   11.5   9.0   WNW   0.75  15.0   WNW   16.8   17.5   16.6  1013.9  0.00  0.00   0.002   0.000   24.2    52   13.7   24.3   9.54  .0731    117    1    100.0    5 
17/07/18   0:50   17.7   17.7   17.7    66   11.3   8.0   WNW   0.67  13.0    NW   17.3   17.5   17.1  1014.0  0.00  0.00   0.002   0.000   24.1    52   13.6   24.2   9.54  .0731    117    1    100.0    5 
17/07/18   0:55   17.7   17.7   17.7    66   11.2   6.0   WNW   0.50  10.0   WNW   17.7   17.4   17.4  1014.0  0.00  0.00   0.002   0.000   24.0    51   13.2   24.1   9.35  .0731    117    1    100.0    5 
17/07/18   1:00   17.6   17.7   17.6    65   11.0   6.0   WNW   0.50  12.0   WNW   17.6   17.3   17.3  1014.0  0.00  0.00   0.003   0.000   23.9    51   13.2   24.1   9.35  .0732    117    1    100.0    5 
17/07/18   1:05   17.6   17.6   17.6    65   10.9   4.0   WNW   0.33   8.0   WNW   17.6   17.3   17.3  1014.0  0.00  0.00   0.003   0.000   23.9    51   13.1   24.0   9.35  .0732    117    1    100.0    5 
17/07/18   1:10   17.5   17.6   17.5    65   10.8   5.0   WNW   0.42  10.0   WNW   17.5   17.2   17.2  1014.0  0.00  0.00   0.003   0.000   23.8    51   13.1   23.9   9.35  .0732    115    1    100.0    5 
17/07/18   1:15   17.4   17.5   17.4    65   10.8   5.0   WNW   0.42   9.0   WNW   17.4   17.1   17.1  1014.1  0.00  0.00   0.003   0.000   23.8    51   13.0   23.8   9.35  .0732    117    1    100.0    5 
17/07/18   1:20   17.3   17.4   17.3    64   10.5   6.0   WNW   0.50  10.0   WNW   17.3   16.9   16.9  1014.1  0.00  0.00   0.003   0.000   23.8    50   12.7   23.8   9.25  .0732    116    1    100.0    5 
17/07/18   1:25   17.3   17.3   17.3    64   10.4   6.0   WNW   0.50  11.0   WNW   17.3   16.9   16.9  1014.1  0.00  0.00   0.004   0.000   23.7    50   12.7   23.7   9.25  .0733    116    1    100.0    5 
17/07/18   1:30   17.2   17.3   17.2    64   10.3   6.0   WNW   0.50   9.0    NW   17.2   16.8   16.8  1014.1  0.00  0.00   0.004   0.000   23.7    50   12.6   23.6   9.25  .0733    118    1    100.0    5 
17/07/18   1:35   17.1   17.2   17.1    63   10.0   6.0   WNW   0.50  10.0   WNW   17.1   16.7   16.7  1014.1  0.00  0.00   0.004   0.000   23.6    50   12.6   23.6   9.25  .0733    117    1    100.0    5 
17/07/18   1:40   17.1   17.1   17.1    64   10.2   5.0   WNW   0.42   9.0   WNW   17.1   16.7   16.7  1014.1  0.00  0.00   0.004   0.000   23.6    50   12.5   23.5   9.25  .0733    117    1    100.0    5 
17/07/18   1:45   16.9   17.1   16.9    64   10.1   4.0    NW   0.33   9.0    NW   16.9   16.6   16.6  1014.1  0.00  0.00   0.005   0.000   23.5    50   12.5   23.4   9.25  .0733    117    1    100.0    5 
17/07/18   1:50   16.9   16.9   16.9    64   10.0   3.0    NW   0.25   8.0   WNW   16.9   16.4   16.4  1014.1  0.00  0.00   0.005   0.000   23.4    50   12.4   23.3   9.25  .0733    116    1    100.0    5 
17/07/18   1:55   16.8   16.9   16.8    64    9.9   3.0   WNW   0.25   6.0   WNW   16.8   16.3   16.3  1014.1  0.00  0.00   0.005   0.000   23.4    50   12.4   23.2   9.25  .0734    116    1    100.0    5 
17/07/18   2:00   16.7   16.8   16.7    64    9.9   1.0   WNW   0.08   4.0   WNW   16.7   16.3   16.3  1014.1  0.00  0.00   0.006   0.000   23.3    50   12.3   23.2   9.25  .0734    117    1    100.0    5 
17/07/18   2:05   16.6   16.7   16.6    64    9.8   2.0   WNW   0.17   5.0   WNW   16.6   16.2   16.2  1014.1  0.00  0.00   0.006   0.000   23.3    50   12.3   23.2   9.25  .0734    117    1    100.0    5 
17/07/18   2:10   16.6   16.6   16.5    65    9.9   3.0   WNW   0.25   6.0   WNW   16.6   16.2   16.2  1014.0  0.00  0.00   0.006   0.000   23.3    50   12.3   23.1   9.25  .0734    117    1    100.0    5 
17/07/18   2:15   16.4   16.6   16.4    65    9.8   1.0   WNW   0.08   7.0   WNW   16.4   16.1   16.1  1014.0  0.00  0.00   0.007   0.000   23.3    50   12.3   23.1   9.25  .0734    117    1    100.0    5 
17/07/18   2:20   16.3   16.4   16.3    65    9.7   2.0   WNW   0.17   7.0   WNW   16.3   15.9   15.9  1014.0  0.00  0.00   0.007   0.000   23.2    50   12.2   23.1   9.25  .0734    116    1    100.0    5 
17/07/18   2:25   16.2   16.3   16.2    65    9.6   3.0   WNW   0.25   6.0   WNW   16.2   15.8   15.8  1014.0  0.00  0.00   0.007   0.000   23.2    50   12.2   22.9   9.25  .0734    117    1    100.0    5 
17/07/18   2:30   16.2   16.2   16.2    65    9.6   2.0   WNW   0.17   6.0   WNW   16.2   15.7   15.7  1014.0  0.00  0.00   0.008   0.000   23.1    50   12.1   22.9   9.25  .0734    114    1    100.0    5 
17/07/18   2:35   16.1   16.2   16.1    65    9.5   3.0   WNW   0.25   7.0   WNW   16.1   15.6   15.6  1014.0  0.00  0.00   0.008   0.000   23.1    50   12.1   22.8   9.25  .0735    118    1    100.0    5 
17/07/18   2:40   16.0   16.1   16.0    66    9.6   3.0   WNW   0.25   7.0   WNW   16.0   15.6   15.6  1014.0  0.00  0.00   0.008   0.000   23.1    50   12.1   22.8   9.25  .0735    116    1    100.0    5 
17/07/18   2:45   15.9   16.0   15.9    66    9.5   3.0   WNW   0.25   6.0   WNW   15.9   15.4   15.4  1014.1  0.00  0.00   0.008   0.000   22.9    50   12.0   22.7   9.25  .0735    117    1    100.0    5 
17/07/18   2:50   15.8   15.9   15.8    66    9.4   4.0   WNW   0.33   7.0   WNW   15.8   15.3   15.3  1014.2  0.00  0.00   0.009   0.000   22.9    50   11.9   22.6   9.25  .0735    117    1    100.0    5 
17/07/18   2:55   15.7   15.8   15.7    67    9.6   3.0   WNW   0.25   6.0   WNW   15.7   15.2   15.2  1014.1  0.00  0.00   0.009   0.000   22.8    50   11.8   22.5   9.25  .0735    116    1    100.0    5 
17/07/18   3:00   15.6   15.7   15.6    67    9.4   4.0   WNW   0.33   7.0   WNW   15.6   15.1   15.1  1014.1  0.00  0.00   0.010   0.000   22.7    50   11.8   22.4   9.25  .0736    116    1    100.0    5 
17/07/18   3:05   15.4   15.6   15.4    68    9.5   4.0   WNW   0.33   7.0   WNW   15.4   15.0   15.0  1014.1  0.00  0.00   0.010   0.000   22.7    51   12.0   22.4   9.39  .0736    117    1    100.0    5 
17/07/18   3:10   15.3   15.4   15.3    68    9.5   2.0   WNW   0.17   6.0   WNW   15.3   14.9   14.9  1014.1  0.00  0.00   0.010   0.000   22.6    51   11.9   22.2   9.40  .0736    117    1    100.0    5 
17/07/18   3:15   15.3   15.3   15.3    69    9.6   3.0   WNW   0.25   5.0   WNW   15.3   14.9   14.9  1014.1  0.00  0.00   0.011   0.000   22.5    51   11.9   22.2   9.40  .0736    116    1    100.0    5 
17/07/18   3:20   15.2   15.3   15.2    69    9.6   2.0   WNW   0.17   6.0   WNW   15.2   14.8   14.8  1014.1  0.00  0.00   0.011   0.000   22.4    52   12.1   22.1   9.60  .0736    116    1    100.0    5 
17/07/18   3:25   15.2   15.2   15.2    69    9.5   1.0   WNW   0.08   5.0   WNW   15.2   14.8   14.8  1014.2  0.00  0.00   0.011   0.000   22.4    52   12.0   22.1   9.60  .0736    116    1    100.0    5 
17/07/18   3:30   15.2   15.2   15.1    69    9.5   1.0   WNW   0.08   5.0   WNW   15.2   14.8   14.8  1014.2  0.00  0.00   0.011   0.000   22.3    52   12.0   21.9   9.61  .0737    117    1    100.0    5 
17/07/18   3:35   15.1   15.1   15.1    70    9.6   3.0   WNW   0.25   5.0   WNW   15.1   14.7   14.7  1014.2  0.00  0.00   0.011   0.000   22.3    52   12.0   21.9   9.61  .0737    118    1    100.0    5 
17/07/18   3:40   15.0   15.1   15.0    70    9.6   3.0   WNW   0.25   6.0   WNW   15.0   14.6   14.6  1014.2  0.00  0.00   0.012   0.000   22.3    53   12.2   21.9   9.77  .0737    117    1    100.0    5 
17/07/18   3:45   14.9   15.0   14.9    70    9.5   3.0   WNW   0.25   6.0   WNW   14.9   14.6   14.6  1014.3  0.00  0.00   0.012   0.000   22.2    53   12.2   21.8   9.77  .0737    117    1    100.0    5 
17/07/18   3:50   14.9   14.9   14.9    71    9.7   3.0   WNW   0.25   7.0   WNW   14.9   14.5   14.5  1014.3  0.00  0.00   0.012   0.000   22.2    53   12.2   21.8   9.77  .0737    117    1    100.0    5 
17/07/18   3:55   14.8   14.9   14.8    71    9.6   3.0   WNW   0.25   7.0   WNW   14.8   14.4   14.4  1014.4  0.00  0.00   0.012   0.000   22.2    53   12.2   21.8   9.77  .0737    117    1    100.0    5 
17/07/18   4:00   14.7   14.8   14.7    71    9.5   1.0   WNW   0.08   3.0   WNW   14.7   14.3   14.3  1014.3  0.00  0.00   0.013   0.000   22.2    53   12.2   21.8   9.77  .0737    117    1    100.0    5 
17/07/18   4:05   14.7   14.7   14.7    71    9.5   2.0   WNW   0.17   6.0   WNW   14.7   14.3   14.3  1014.2  0.00  0.00   0.013   0.000   22.1    53   12.1   21.7   9.78  .0737    117    1    100.0    5 
17/07/18   4:10   14.6   14.7   14.6    72    9.6   4.0   WNW   0.33   7.0   WNW   14.6   14.2   14.2  1014.3  0.00  0.00   0.013   0.000   22.1    53   12.1   21.7   9.78  .0737    115    1    100.0    5 
17/07/18   4:15   14.5   14.6   14.5    72    9.5   4.0   WNW   0.33   7.0   WNW   14.5   14.1   14.1  1014.3  0.00  0.00   0.013   0.000   22.0    53   12.0   21.5   9.79  .0737    117    1    100.0    5 
17/07/18   4:20   14.4   14.5   14.4    72    9.5   3.0   WNW   0.25   7.0   WNW   14.4   14.1   14.1  1014.3  0.00  0.00   0.014   0.000   22.0    53   12.0   21.5   9.79  .0737    117    1    100.0    5 
17/07/18   4:25   14.3   14.4   14.3    73    9.6   3.0   WNW   0.25   8.0   WNW   14.3   14.0   14.0  1014.3  0.00  0.00   0.014   0.000   21.9    53   11.9   21.3   9.79  .0738    117    1    100.0    5 
17/07/18   4:30   14.3   14.3   14.3    73    9.5   5.0   WNW   0.42   9.0   WNW   14.0   13.9   13.7  1014.4  0.00  0.00   0.014   0.000   21.8    54   12.1   21.3   9.92  .0738    116    1    100.0    5 
17/07/18   4:35   14.2   14.3   14.2    73    9.4   4.0   WNW   0.33   8.0   WNW   14.2   13.9   13.9  1014.2  0.00  0.00   0.014   0.000   21.8    54   12.1   21.2   9.93  .0738    117    1    100.0    5 
17/07/18   4:40   14.2   14.3   14.2    73    9.4   3.0   WNW   0.25   6.0   WNW   14.2   13.8   13.8  1014.3  0.00  0.00   0.014   0.000   21.7    54   12.0   21.2   9.93  .0738    117    1    100.0    5 
17/07/18   4:45   14.1   14.2   14.1    73    9.3   3.0   WNW   0.25   7.0   WNW   14.1   13.8   13.8  1014.4  0.00  0.00   0.015   0.000   21.7    54   12.0   21.2   9.93  .0738    117    1    100.0    5 
17/07/18   4:50   14.0   14.1   14.0    73    9.2   2.0   WNW   0.17   5.0   WNW   14.0   13.7   13.7  1014.4  0.00  0.00   0.015   0.000   21.7    54   12.0   21.1   9.93  .0738    116    1    100.0    5 
17/07/18   4:55   13.9   14.0   13.9    74    9.4   3.0   WNW   0.25   5.0   WNW   13.9   13.6   13.6  1014.5  0.00  0.00   0.015   0.000   21.7    54   12.0   21.1   9.93  .0738    116    1    100.0    5 
17/07/18   5:00   13.8   13.9   13.8    74    9.3   2.0   WNW   0.17   5.0   WNW   13.8   13.5   13.5  1014.5  0.00  0.00   0.016   0.000   21.6    54   11.9   21.0   9.93  .0739    116    1    100.0    5 
17/07/18   5:05   13.8   13.8   13.8    74    9.2   2.0   WNW   0.17   5.0   WNW   13.8   13.4   13.4  1014.5  0.00  0.00   0.016   0.000   21.6    54   11.9   21.0   9.93  .0739    115    1    100.0    5 
17/07/18   5:10   13.7   13.8   13.7    74    9.2   3.0   WNW   0.25   6.0   WNW   13.7   13.4   13.4  1014.6  0.00  0.00   0.016   0.000   21.6    54   11.8   20.9   9.93  .0739    115    1    100.0    5 
17/07/18   5:15   13.7   13.7   13.7    74    9.1   2.0   WNW   0.17   5.0   WNW   13.7   13.3   13.3  1014.6  0.00  0.00   0.016   0.000   21.5    54   11.8   20.8   9.94  .0739    117    1    100.0    5 
17/07/18   5:20   13.7   13.7   13.7    75    9.3   2.0   WNW   0.17   4.0   WNW   13.7   13.4   13.4  1014.5  0.00  0.00   0.016   0.000   21.4    54   11.7   20.8   9.94  .0739    117    1    100.0    5 
17/07/18   5:25   13.6   13.7   13.6    75    9.3   1.0   WNW   0.08   4.0   WNW   13.6   13.3   13.3  1014.6  0.00  0.00   0.016   0.000   21.4    54   11.7   20.7   9.94  .0739    117    1    100.0    5 
17/07/18   5:30   13.6   13.6   13.6    75    9.3   1.0   WNW   0.08   3.0   WNW   13.6   13.3   13.3  1014.6  0.00  0.00   0.016   0.000   21.4    54   11.7   20.7   9.94  .0739    116    1    100.0    5 
17/07/18   5:35   13.6   13.6   13.6    75    9.3   1.0   WNW   0.08   4.0   WNW   13.6   13.3   13.3  1014.7  0.00  0.00   0.016   0.000   21.4    55   12.0   20.8  10.14  .0739    116    1    100.0    5 
17/07/18   5:40   13.6   13.6   13.6    75    9.3   1.0   WNW   0.08   4.0   WNW   13.6   13.3   13.3  1014.8  0.00  0.00   0.016   0.000   21.4    54   11.7   20.8   9.94  .0739    117    1    100.0    5 
17/07/18   5:45   13.6   13.6   13.6    75    9.3   1.0   SSW   0.08   3.0   SSW   13.6   13.3   13.3  1014.9  0.00  0.00   0.016   0.000   21.5    54   11.8   20.8   9.94  .0739    117    1    100.0    5 
17/07/18   5:50   13.6   13.6   13.6    75    9.2   1.0   SSW   0.08   3.0   SSW   13.6   13.2   13.2  1014.9  0.00  0.00   0.017   0.000   21.6    54   11.8   20.9   9.93  .0739    117    1    100.0    5 
17/07/18   5:55   13.6   13.6   13.6    76    9.4   1.0   SSW   0.08   4.0   SSW   13.6   13.3   13.3  1014.9  0.00  0.00   0.017   0.000   21.6    54   11.8   20.9   9.93  .0739    116    1    100.0    5 
17/07/18   6:00   13.6   13.6   13.6    76    9.5   1.0    SW   0.08   3.0    SW   13.6   13.3   13.3  1015.0  0.00  0.00   0.016   0.000   21.6    54   11.8   20.9   9.93  .0739    115    1    100.0    5 
17/07/18   6:05   13.6   13.7   13.6    76    9.5   2.0    SW   0.17   5.0    SW   13.6   13.3   13.3  1015.0  0.00  0.00   0.016   0.000   21.6    54   11.8   20.9   9.93  .0739    117    1    100.0    5 
17/07/18   6:10   13.7   13.7   13.6    76    9.5   2.0   WSW   0.17   6.0   WSW   13.7   13.4   13.4  1015.1  0.00  0.00   0.016   0.000   21.5    54   11.8   20.8   9.94  .0739    116    1    100.0    5 
17/07/18   6:15   13.7   13.7   13.7    76    9.6   3.0     W   0.25   7.0     W   13.7   13.4   13.4  1015.1  0.00  0.00   0.016   0.000   21.5    54   11.8   20.8   9.94  .0739    117    1    100.0    5 
17/07/18   6:20   13.7   13.7   13.7    76    9.6   3.0     W   0.25   7.0   WNW   13.7   13.4   13.4  1015.2  0.00  0.00   0.016   0.000   21.5    54   11.8   20.8   9.94  .0739    117    1    100.0    5 
17/07/18   6:25   13.8   13.8   13.7    76    9.6   3.0   WNW   0.25   9.0   WNW   13.8   13.5   13.5  1015.2  0.00  0.00   0.016   0.000   21.5    55   12.1   20.9  10.14  .0739    117    1    100.0    5 
17/07/18   6:30   13.8   13.8   13.8    76    9.7   4.0   WNW   0.33   7.0   WNW   13.8   13.6   13.6  1015.2  0.00  0.00   0.016   0.000   21.5    54   11.8   20.8   9.94  .0739    115    1    100.0    5 
17/07/18   6:35   13.9   13.9   13.8    76    9.7   3.0   WNW   0.25   6.0   WNW   13.9   13.6   13.6  1015.2  0.00  0.00   0.015   0.000   21.5    55   12.1   20.9  10.14  .0739    117    1    100.0    5 
17/07/18   6:40   13.9   14.0   13.9    76    9.8   3.0   WNW   0.25   7.0   WNW   13.9   13.7   13.7  1015.3  0.00  0.00   0.015   0.000   21.5    55   12.1   20.9  10.14  .0739    116    1    100.0    5 
17/07/18   6:45   14.1   14.1   14.0    76    9.9   3.0   WNW   0.25   7.0   WNW   14.1   13.8   13.8  1015.4  0.00  0.00   0.015   0.000   21.5    55   12.1   20.9  10.14  .0739    116    1    100.0    5 
17/07/18   6:50   14.1   14.1   14.1    76    9.9   2.0   WNW   0.17   5.0   WNW   14.1   13.8   13.8  1015.4  0.00  0.00   0.015   0.000   21.5    55   12.1   20.9  10.14  .0739    116    1    100.0    5 
17/07/18   6:55   14.2   14.2   14.1    76   10.0   2.0    NW   0.17   5.0    NW   14.2   13.9   13.9  1015.4  0.00  0.00   0.014   0.000   21.6    55   12.1   20.9  10.13  .0739    116    1    100.0    5 
17/07/18   7:00   14.3   14.3   14.2    76   10.1   3.0   WNW   0.25   7.0   WNW   14.3   14.1   14.1  1015.5  0.00  0.00   0.014   0.000   21.6    55   12.2   21.1  10.13  .0739    117    1    100.0    5 
17/07/18   7:05   14.4   14.4   14.3    76   10.3   2.0   WNW   0.17   6.0   WNW   14.4   14.2   14.2  1015.4  0.00  0.00   0.014   0.000   21.6    55   12.2   21.1  10.13  .0739    117    1    100.0    5 
17/07/18   7:10   14.6   14.6   14.4    75   10.2   4.0   WNW   0.33   8.0   WNW   14.6   14.3   14.3  1015.5  0.00  0.00   0.013   0.000   21.7    55   12.3   21.2  10.13  .0739    116    1    100.0    5 
17/07/18   7:15   14.7   14.7   14.6    75   10.3   3.0   WNW   0.25   7.0   WNW   14.7   14.4   14.4  1015.5  0.00  0.00   0.013   0.000   21.8    55   12.4   21.4  10.12  .0738    116    1    100.0    5 
17/07/18   7:20   14.8   14.8   14.7    75   10.4   2.0   WNW   0.17   7.0   WNW   14.8   14.6   14.6  1015.5  0.00  0.00   0.012   0.000   22.0    54   12.3   21.6   9.92  .0738    115    1    100.0    5 
17/07/18   7:25   14.9   14.9   14.8    75   10.5   5.0   WNW   0.42   8.0   WNW   14.8   14.7   14.6  1015.6  0.00  0.00   0.012   0.000   22.1    54   12.4   21.7   9.91  .0738    116    1    100.0    5 
17/07/18   7:30   15.1   15.1   14.9    75   10.7   4.0   WNW   0.33   9.0   WNW   15.1   14.8   14.8  1015.5  0.00  0.00   0.011   0.000   22.3    54   12.5   22.0   9.91  .0737    117    1    100.0    5 
17/07/18   7:35   15.3   15.3   15.1    74   10.7   5.0   WNW   0.42   9.0   WNW   15.2   15.0   14.9  1015.6  0.00  0.00   0.011   0.000   22.3    54   12.6   22.1   9.91  .0737    116    1    100.0    5 
17/07/18   7:40   15.4   15.4   15.3    74   10.8   5.0   WNW   0.42   9.0    NW   15.4   15.2   15.2  1015.6  0.00  0.00   0.010   0.000   22.4    54   12.7   22.2   9.90  .0737    117    1    100.0    5 
17/07/18   7:45   15.6   15.6   15.4    74   11.0   6.0   WNW   0.50   9.0   WNW   15.4   15.4   15.2  1015.6  0.00  0.00   0.009   0.000   22.5    54   12.7   22.3   9.90  .0737    117    1    100.0    5 
17/07/18   7:50   15.7   15.7   15.6    73   10.9   5.0   WNW   0.42   8.0   WNW   15.7   15.4   15.4  1015.6  0.00  0.00   0.009   0.000   22.6    54   12.8   22.5   9.90  .0736    116    1    100.0    5 
17/07/18   7:55   15.9   15.9   15.7    74   11.3   3.0   WNW   0.25   8.0   WNW   15.9   15.7   15.7  1015.7  0.00  0.00   0.008   0.000   22.7    54   12.9   22.7   9.89  .0736    117    1    100.0    5 
17/07/18   8:00   16.2   16.2   15.9    73   11.3   5.0     W   0.42   9.0     W   16.2   15.9   15.9  1015.7  0.00  0.00   0.008   0.000   22.8    53   12.7   22.7   9.73  .0736    117    1    100.0    5 
17/07/18   8:05   16.3   16.3   16.2    73   11.5   6.0   WNW   0.50  10.0   WNW   16.3   16.1   16.1  1015.6  0.00  0.00   0.007   0.000   22.8    53   12.7   22.7   9.73  .0736    117    1    100.0    5 
17/07/18   8:10   16.6   16.6   16.3    73   11.7   4.0     W   0.33   8.0   WNW   16.6   16.4   16.4  1015.6  0.00  0.00   0.006   0.000   22.9    53   12.9   22.9   9.72  .0735    114    1    100.0    5 
17/07/18   8:15   16.8   16.8   16.6    72   11.8   5.0   WNW   0.42  10.0   WNW   16.8   16.7   16.7  1015.7  0.00  0.00   0.005   0.000   23.0    53   12.9   22.9   9.71  .0735    117    1    100.0    5 
17/07/18   8:20   17.1   17.1   16.8    71   11.8   7.0     W   0.58  12.0   WNW   16.9   16.9   16.8  1015.7  0.00  0.00   0.004   0.000   23.1    53   13.0   23.0   9.71  .0735    117    1    100.0    5 
17/07/18   8:25   17.3   17.3   17.1    71   12.0   5.0   WNW   0.42  10.0   WNW   17.3   17.2   17.2  1015.7  0.00  0.00   0.004   0.000   23.1    53   13.0   23.1   9.71  .0735    117    1    100.0    5 
17/07/18   8:30   17.5   17.5   17.3    70   12.0   4.0   WNW   0.33  10.0   WNW   17.5   17.4   17.4  1015.7  0.00  0.00   0.003   0.000   23.2    54   13.3   23.2   9.88  .0735    116    1    100.0    5 
17/07/18   8:35   17.7   17.7   17.5    69   12.0   5.0   WNW   0.42  10.0   WNW   17.7   17.6   17.6  1015.8  0.00  0.00   0.002   0.000   23.2    53   13.1   23.2   9.70  .0735    117    1    100.0    5 
17/07/18   8:40   17.9   17.9   17.8    68   12.0   6.0     W   0.50  12.0     W   17.9   17.8   17.8  1015.8  0.00  0.00   0.001   0.000   23.3    53   13.2   23.3   9.69  .0735    116    1    100.0    5 
17/07/18   8:45   18.1   18.1   17.9    67   11.8   6.0     W   0.50  11.0     W   18.1   17.9   17.9  1015.8  0.00  0.00   0.001   0.000   23.3    53   13.2   23.3   9.69  .0735    116    1    100.0    5 
17/07/18   8:50   18.3   18.3   18.1    67   12.1   6.0     W   0.50  13.0   WSW   18.3   18.2   18.2  1015.8  0.00  0.00   0.000   0.000   23.3    53   13.2   23.3   9.69  .0734    116    1    100.0    5 
17/07/18   8:55   18.4   18.4   18.3    66   11.9   6.0   WNW   0.50  10.0     W   18.4   18.3   18.3  1015.8  0.00  0.00   0.000   0.000   23.4    53   13.3   23.4   9.69  .0734    117    1    100.0    5 
17/07/18   9:00   18.6   18.6   18.4    65   11.9   5.0   WNW   0.42   9.0   WNW   18.6   18.5   18.5  1015.8  0.00  0.00   0.000   0.001   23.4    53   13.3   23.5   9.68  .0734    116    1    100.0    5 
17/07/18   9:05   18.8   18.8   18.6    65   12.1   8.0   WSW   0.67  12.0   WSW   18.5   18.7   18.4  1015.7  0.00  0.00   0.000   0.002   23.4    53   13.3   23.5   9.68  .0734    117    1    100.0    5 
17/07/18   9:10   18.8   18.8   18.8    63   11.6   8.0     W   0.67  13.0     W   18.5   18.6   18.3  1015.8  0.00  0.00   0.000   0.002   23.5    52   13.1   23.5   9.56  .0734    117    1    100.0    5 
17/07/18   9:15   18.9   18.9   18.8    63   11.7   7.0     W   0.58  13.0     W   18.9   18.7   18.7  1015.8  0.00  0.00   0.000   0.002   23.5    52   13.1   23.5   9.56  .0734    117    1    100.0    5 
17/07/18   9:20   18.9   18.9   18.9    62   11.5   8.0   WSW   0.67  14.0   WSW   18.6   18.7   18.3  1015.9  0.00  0.00   0.000   0.002   23.6    52   13.1   23.6   9.56  .0734    117    1    100.0    5 
17/07/18   9:25   18.9   18.9   18.8    63   11.7  10.0   WSW   0.83  13.0   WSW   17.8   18.7   17.6  1015.8  0.00  0.00   0.000   0.002   23.6    52   13.1   23.6   9.56  .0734    117    1    100.0    5 
17/07/18   9:30   19.1   19.1   18.9    62   11.6   8.0     W   0.67  15.0   WSW   18.7   18.8   18.5  1015.8  0.00  0.00   0.000   0.003   23.6    52   13.2   23.7   9.56  .0734    115    1    100.0    5 
17/07/18   9:35   19.2   19.2   19.1    62   11.8   9.0   WSW   0.75  13.0   WSW   18.5   19.0   18.3  1015.8  0.00  0.00   0.000   0.003   23.6    52   13.2   23.7   9.56  .0734    117    1    100.0    5 
17/07/18   9:40   19.2   19.2   19.1    63   12.0  10.0   WSW   0.83  15.0   WSW   18.1   19.0   17.9  1015.8  0.00  0.00   0.000   0.003   23.7    52   13.2   23.7   9.56  .0734    117    1    100.0    5 
17/07/18   9:45   19.1   19.2   19.1    64   12.1  11.0   WSW   0.92  16.0   WSW   17.6   18.9   17.4  1015.8  0.00  0.00   0.000   0.003   23.7    52   13.2   23.7   9.56  .0734    117    1    100.0    5 
17/07/18   9:50   19.0   19.1   19.0    63   11.8  11.0   WSW   0.92  15.0   WSW   17.5   18.8   17.3  1015.8  0.00  0.00   0.000   0.002   23.7    52   13.2   23.7   9.56  .0734    116    1    100.0    5 
17/07/18   9:55   18.9   18.9   18.8    63   11.7  12.0   WSW   1.00  15.0   WSW   17.0   18.7   16.8  1015.8  0.00  0.00   0.000   0.002   23.7    52   13.3   23.8   9.56  .0733    118    1    100.0    5 
17/07/18  10:00   19.1   19.1   18.9    63   11.8  13.0   WSW   1.08  18.0   WSW   16.9   18.9   16.8  1015.8  0.00  0.00   0.000   0.003   23.7    52   13.3   23.8   9.56  .0733    116    1    100.0    5 
17/07/18  10:05   19.3   19.3   19.1    63   12.1  12.0   WSW   1.00  16.0   WSW   17.6   19.2   17.4  1015.9  0.00  0.00   0.000   0.003   23.7    52   13.3   23.8   9.56  .0733    116    1    100.0    5 
17/07/18  10:10   19.6   19.6   19.3    63   12.3  12.0   WSW   1.00  15.0   WSW   17.8   19.4   17.7  1015.9  0.00  0.00   0.000   0.004   23.8    52   13.3   23.9   9.55  .0733    116    1    100.0    5 
17/07/18  10:15   19.7   19.7   19.5    63   12.4  12.0   WSW   1.00  16.0   WSW   17.9   19.6   17.8  1015.9  0.00  0.00   0.000   0.005   23.8    52   13.3   23.9   9.55  .0733    117    1    100.0    5 
17/07/18  10:20   19.6   19.7   19.6    60   11.6  11.0    SW   0.92  17.0   WSW   18.2   19.4   17.9  1015.9  0.00  0.00   0.000   0.004   23.8    52   13.4   23.9   9.55  .0733    116    1    100.0    5 
17/07/18  10:25   19.8   19.8   19.6    59   11.5  12.0   WSW   1.00  18.0   WSW   18.1   19.5   17.8  1015.8  0.00  0.00   0.000   0.005   23.8    52   13.4   23.9   9.55  .0733    117    1    100.0    5 
17/07/18  10:30   20.1   20.1   19.8    58   11.5  14.0   WSW   1.17  17.0   WSW   17.8   19.8   17.6  1015.9  0.00  0.00   0.000   0.006   23.8    52   13.4   23.9   9.55  .0733    117    1    100.0    5 
17/07/18  10:35   20.0   20.2   20.0    59   11.7  14.0    SW   1.17  19.0    SW   17.8   19.8   17.6  1015.9  0.00  0.00   0.000   0.006   23.9    52   13.4   24.1   9.55  .0733    117    1    100.0    5 
17/07/18  10:40   19.7   19.9   19.7    61   12.0  14.0    SW   1.17  19.0    SW   17.5   19.6   17.3  1016.0  0.00  0.00   0.000   0.005   23.9    52   13.4   24.1   9.55  .0733    117    1    100.0    5 
17/07/18  10:45   19.5   19.7   19.5    62   12.0  15.0    SW   1.25  18.0   WSW   17.0   19.3   16.8  1016.0  0.00  0.00   0.000   0.004   23.9    52   13.5   24.1   9.55  .0733    117    1    100.0    5 
17/07/18  10:50   19.6   19.6   19.5    64   12.6  14.0    SW   1.17  18.0   WSW   17.3   19.6   17.3  1016.0  0.00  0.00   0.000   0.004   23.9    52   13.5   24.1   9.55  .0733    114    1    100.0    5 
17/07/18  10:55   19.4   19.6   19.4    64   12.5  13.0    SW   1.08  18.0    SW   17.4   19.4   17.3  1016.1  0.00  0.00   0.000   0.004   23.9    52   13.5   24.1   9.55  .0733    117    1    100.0    5 
17/07/18  11:00   19.5   19.6   19.4    68   13.4  13.0   SSW   1.08  18.0   SSW   17.4   19.7   17.6  1016.1  0.00  0.00   0.000   0.004   24.0    53   13.8   24.2   9.65  .0733    117    1    100.0    5 
17/07/18  11:05   19.3   19.4   19.3    70   13.7  13.0   SSW   1.08  17.0   SSW   17.3   19.6   17.5  1016.1  0.00  0.00   0.000   0.003   24.1    54   14.2   24.3   9.84  .0732    114    1    100.0    5 
17/07/18  11:10   19.0   19.3   19.0    69   13.2  14.0   SSW   1.17  19.0   SSW   16.6   19.1   16.7  1016.1  0.00  0.00   0.000   0.002   24.1    54   14.2   24.3   9.84  .0732    117    1    100.0    5 
17/07/18  11:15   19.1   19.1   18.9    71   13.7  15.0   SSW   1.25  19.0   SSW   16.5   19.2   16.7  1016.1  0.00  0.00   0.000   0.003   24.2    54   14.3   24.3   9.84  .0732    117    1    100.0    5 
17/07/18  11:20   19.1   19.1   19.1    72   13.9  13.0   SSW   1.08  17.0    SW   16.9   19.3   17.2  1016.2  0.00  0.00   0.000   0.003   24.2    55   14.6   24.4  10.03  .0732    115    1    100.0    5 
17/07/18  11:25   18.9   19.1   18.9    71   13.6  15.0    SW   1.25  20.0    SW   16.4   19.1   16.6  1016.2  0.00  0.00   0.000   0.002   24.2    55   14.6   24.4  10.03  .0731    116    1    100.0    5 
17/07/18  11:30   18.9   18.9   18.9    71   13.5  16.0    SW   1.33  20.0    SW   16.1   19.1   16.3  1016.2  0.00  0.00   0.000   0.002   24.2    55   14.6   24.4  10.03  .0731    117    1    100.0    5 
17/07/18  11:35   18.7   18.9   18.7    73   13.8  16.0    SW   1.33  19.0    SW   15.9   18.9   16.1  1016.3  0.00  0.00   0.000   0.001   24.3    55   14.7   24.5  10.02  .0731    116    1    100.0    5 
17/07/18  11:40   18.6   18.8   18.5    72   13.4  17.0    SW   1.42  20.0    SW   15.6   18.7   15.7  1016.3  0.00  0.00   0.000   0.001   24.3    55   14.7   24.5  10.02  .0731    117    1    100.0    5 
17/07/18  11:45   18.6   18.6   18.6    74   13.8  16.0    SW   1.33  20.0    SW   15.7   18.7   15.9  1016.4  0.00  0.00   0.000   0.001   24.3    56   14.9   24.5  10.22  .0731    117    1    100.0    5 
17/07/18  11:50   18.5   18.6   18.4    73   13.6  16.0    SW   1.33  20.0   WSW   15.7   18.6   15.8  1016.4  0.00  0.00   0.000   0.001   24.3    56   14.9   24.5  10.22  .0731    117    1    100.0    5 
17/07/18  11:55   18.4   18.5   18.4    73   13.5  16.0    SW   1.33  19.0    SW   15.6   18.5   15.7  1016.4  0.00  0.00   0.000   0.000   24.3    56   15.0   24.6  10.22  .0731    116    1    100.0    5 
17/07/18  12:00   18.7   18.7   18.4    73   13.7  15.0    SW   1.25  20.0    SW   16.1   18.8   16.2  1016.3  0.00  0.00   0.000   0.001   24.3    56   15.0   24.6  10.22  .0731    115    1    100.0    5 
17/07/18  12:05   18.6   18.7   18.6    73   13.7  18.0    SW   1.50  21.0    SW   15.5   18.8   15.7  1016.3  0.00  0.00   0.000   0.001   24.3    56   15.0   24.6  10.22  .0731    118    1    100.0    5 
17/07/18  12:10   18.6   18.7   18.6    73   13.7  17.0    SW   1.42  22.0    SW   15.7   18.8   15.8  1016.5  0.00  0.00   0.000   0.001   24.4    56   15.0   24.6  10.21  .0731    117    1    100.0    5 
17/07/18  12:15   18.6   18.7   18.6    73   13.7  17.0    SW   1.42  21.0    SW   15.7   18.8   15.8  1016.5  0.00  0.00   0.000   0.001   24.4    56   15.0   24.6  10.21  .0731    117    1    100.0    5 
17/07/18  12:20   18.8   18.8   18.6    72   13.6  14.0    SW   1.17  20.0    SW   16.4   18.9   16.6  1016.5  0.00  0.00   0.000   0.002   24.4    56   15.0   24.6  10.21  .0731    116    1    100.0    5 
17/07/18  12:25   18.8   18.8   18.7    71   13.5  15.0    SW   1.25  19.0    SW   16.3   18.9   16.4  1016.5  0.00  0.00   0.000   0.002   24.4    56   15.1   24.7  10.21  .0731    117    1    100.0    5 
17/07/18  12:30   18.9   18.9   18.8    73   13.9  17.0    SW   1.42  20.0    SW   15.9   19.1   16.2  1016.4  0.00  0.00   0.000   0.002   24.4    55   14.8   24.6  10.01  .0731    117    1    100.0    5 
17/07/18  12:35   18.7   18.8   18.7    73   13.7  17.0    SW   1.42  21.0    SW   15.7   18.8   15.9  1016.4  0.00  0.00   0.000   0.001   24.4    56   15.1   24.7  10.21  .0731    117    1    100.0    5 
17/07/18  12:40   18.8   18.8   18.7    74   14.0  17.0    SW   1.42  21.0    SW   15.8   19.0   16.1  1016.3  0.00  0.00   0.000   0.002   24.4    56   15.1   24.7  10.21  .0731    116    1    100.0    5 
17/07/18  12:45   18.6   18.8   18.6    73   13.7  18.0    SW   1.50  22.0    SW   15.5   18.8   15.7  1016.3  0.00  0.00   0.000   0.001   24.5    56   15.1   24.7  10.21  .0730    117    1    100.0    5 
17/07/18  12:50   18.7   18.8   18.6    73   13.8  18.0    SW   1.50  22.0    SW   15.6   18.9   15.8  1016.4  0.00  0.00   0.000   0.001   24.5    56   15.1   24.7  10.21  .0730    117    1    100.0    5 
17/07/18  12:55   18.6   18.8   18.6    72   13.5  19.0    SW   1.58  23.0    SW   15.4   18.7   15.5  1016.4  0.00  0.00   0.000   0.001   24.6    56   15.2   24.8  10.20  .0730    116    1    100.0    5 
17/07/18  13:00   18.8   18.8   18.6    73   13.8  18.0    SW   1.50  22.0    SW   15.7   18.9   15.9  1016.5  0.00  0.00   0.000   0.002   24.6    56   15.2   24.8  10.20  .0730    117    1    100.0    5 
17/07/18  13:05   19.0   19.0   18.8    74   14.3  18.0    SW   1.50  21.0    SW   15.9   19.3   16.2  1016.4  0.00  0.00   0.000   0.002   24.6    56   15.2   24.8  10.20  .0730    118    1    100.0    5 
17/07/18  13:10   19.0   19.1   18.9    74   14.3  19.0    SW   1.58  23.0    SW   15.8   19.3   16.1  1016.4  0.00  0.00   0.000   0.002   24.6    56   15.2   24.8  10.20  .0730    117    1    100.0    5 
17/07/18  13:15   18.9   19.0   18.8    73   14.0  19.0    SW   1.58  22.0    SW   15.7   19.2   15.9  1016.5  0.00  0.00   0.000   0.002   24.6    56   15.2   24.8  10.20  .0730    117    1    100.0    5 
17/07/18  13:20   18.8   19.0   18.8    73   13.9  19.0    SW   1.58  23.0    SW   15.6   19.1   15.8  1016.4  0.00  0.00   0.000   0.002   24.7    56   15.3   24.9  10.19  .0730    117    1    100.0    5 
17/07/18  13:25   18.8   19.0   18.8    72   13.7  19.0    SW   1.58  23.0    SW   15.6   19.0   15.8  1016.4  0.00  0.00   0.000   0.002   24.7    57   15.6   24.9  10.29  .0730    117    1    100.0    5 
17/07/18  13:30   18.9   18.9   18.7    73   13.9  19.0    SW   1.58  22.0   WSW   15.7   19.1   15.9  1016.5  0.00  0.00   0.000   0.002   24.7    56   15.3   24.9  10.19  .0730    116    1    100.0    5 
17/07/18  13:35   18.7   18.9   18.7    73   13.8  18.0    SW   1.50  23.0    SW   15.6   18.9   15.8  1016.4  0.00  0.00   0.000   0.001   24.7    56   15.3   24.9  10.19  .0730    115    1    100.0    5 
17/07/18  13:40   18.7   18.7   18.6    73   13.7  19.0    SW   1.58  22.0    SW   15.4   18.8   15.6  1016.4  0.00  0.00   0.000   0.001   24.7    56   15.4   24.9  10.19  .0730    117    1    100.0    5 
17/07/18  13:45   18.9   18.9   18.7    71   13.5  19.0    SW   1.58  23.0    SW   15.7   19.1   15.8  1016.3  0.00  0.00   0.000   0.002   24.7    56   15.4   24.9  10.19  .0730    117    1    100.0    5 
17/07/18  13:50   19.1   19.1   18.8    71   13.7  20.0    SW   1.67  23.0    SW   15.7   19.2   15.9  1016.4  0.00  0.00   0.000   0.003   24.7    56   15.4   24.9  10.19  .0730    117    1    100.0    5 
17/07/18  13:55   18.9   19.1   18.9    71   13.6  21.0    SW   1.75  24.0    SW   15.5   19.1   15.7  1016.3  0.00  0.00   0.000   0.002   24.8    56   15.4   25.0  10.19  .0729    117    1    100.0    5 
17/07/18  14:00   19.1   19.1   18.9    72   13.9  19.0    SW   1.58  23.0    SW   15.9   19.3   16.1  1016.4  0.00  0.00   0.000   0.003   24.8    56   15.4   25.0  10.19  .0730    117    1    100.0    5 
17/07/18  14:05   18.9   19.1   18.9    70   13.3  20.0    SW   1.67  23.0    SW   15.6   19.1   15.7  1016.3  0.00  0.00   0.000   0.002   24.8    56   15.4   25.0  10.19  .0730    116    1    100.0    5 
17/07/18  14:10   19.1   19.1   18.9    71   13.7  19.0    SW   1.58  23.0    SW   15.9   19.2   16.1  1016.4  0.00  0.00   0.000   0.003   24.8    56   15.4   25.0  10.19  .0730    118    1    100.0    5 
17/07/18  14:15   18.9   19.1   18.8    70   13.3  20.0    SW   1.67  23.0    SW   15.6   19.0   15.7  1016.5  0.00  0.00   0.000   0.002   24.8    55   15.2   25.0   9.98  .0730    117    1    100.0    5 
17/07/18  14:20   18.9   19.0   18.9    70   13.3  18.0    SW   1.50  23.0    SW   15.9   19.1   16.0  1016.5  0.00  0.00   0.000   0.002   24.8    55   15.2   25.0   9.98  .0730    116    1    100.0    5 
17/07/18  14:25   18.8   18.9   18.7    69   13.0  20.0    SW   1.67  23.0    SW   15.5   18.9   15.6  1016.5  0.00  0.00   0.000   0.002   24.8    54   14.9   24.9   9.82  .0730    116    1    100.0    5 
17/07/18  14:30   19.2   19.2   18.8    68   13.2  19.0    SW   1.58  23.0    SW   16.1   19.3   16.2  1016.5  0.00  0.00   0.000   0.003   24.8    54   14.9   24.9   9.82  .0730    116    1    100.0    5 
17/07/18  14:35   19.2   19.3   19.2    66   12.7  20.0    SW   1.67  24.0    SW   15.9   19.2   15.9  1016.5  0.00  0.00   0.000   0.003   24.8    54   14.9   24.9   9.82  .0730    117    1    100.0    5 
17/07/18  14:40   19.3   19.4   19.2    67   13.0  20.0    SW   1.67  23.0    SW   16.1   19.4   16.1  1016.5  0.00  0.00   0.000   0.003   24.9    54   14.9   25.0   9.81  .0730    116    1    100.0    5 
17/07/18  14:45   19.3   19.5   19.3    66   12.8  20.0    SW   1.67  23.0    SW   16.1   19.3   16.1  1016.5  0.00  0.00   0.000   0.003   24.9    54   14.9   25.0   9.81  .0730    117    1    100.0    5 
17/07/18  14:50   19.6   19.6   19.3    67   13.3  18.0    SW   1.50  22.0    SW   16.6   19.7   16.7  1016.5  0.00  0.00   0.000   0.004   24.9    54   14.9   25.0   9.81  .0730    117    1    100.0    5 
17/07/18  14:55   19.3   19.6   19.3    66   12.8  20.0    SW   1.67  24.0    SW   16.1   19.3   16.1  1016.6  0.00  0.00   0.000   0.003   24.9    53   14.7   25.0   9.65  .0730    116    1    100.0    5 
17/07/18  15:00   19.6   19.6   19.3    67   13.3  18.0    SW   1.50  23.0    SW   16.6   19.7   16.7  1016.6  0.00  0.00   0.000   0.004   24.9    53   14.7   25.0   9.65  .0730    117    1    100.0    5 
17/07/18  15:05   19.6   19.7   19.5    66   13.0  18.0    SW   1.50  22.0    SW   16.6   19.6   16.6  1016.6  0.00  0.00   0.000   0.004   24.9    54   15.0   25.1   9.81  .0730    116    1    100.0    5 
17/07/18  15:10   19.3   19.6   19.3    68   13.3  20.0    SW   1.67  23.0    SW   16.1   19.4   16.2  1016.5  0.00  0.00   0.000   0.003   25.0    54   15.0   25.1   9.81  .0729    118    1    100.0    5 
17/07/18  15:15   19.3   19.4   19.3    66   12.8  19.0    SW   1.58  24.0    SW   16.2   19.3   16.2  1016.4  0.00  0.00   0.000   0.003   25.1    54   15.1   25.2   9.81  .0729    116    1    100.0    5 
17/07/18  15:20   19.4   19.5   19.3    68   13.4  18.0    SW   1.50  22.0    SW   16.4   19.6   16.6  1016.4  0.00  0.00   0.000   0.004   25.1    54   15.1   25.2   9.81  .0729    115    1    100.0    5 
17/07/18  15:25   19.3   19.4   19.3    68   13.2  19.0    SW   1.58  22.0    SW   16.1   19.4   16.2  1016.5  0.00  0.00   0.000   0.003   25.1    54   15.1   25.2   9.81  .0729    116    1    100.0    5 
17/07/18  15:30   19.5   19.5   19.3    69   13.7  18.0    SW   1.50  21.0    SW   16.5   19.7   16.7  1016.5  0.00  0.00   0.000   0.004   25.1    54   15.1   25.2   9.81  .0729    117    1    100.0    5 
17/07/18  15:35   19.3   19.6   19.3    68   13.3  19.0    SW   1.58  23.0    SW   16.2   19.4   16.3  1016.5  0.00  0.00   0.000   0.003   25.2    54   15.2   25.3   9.80  .0729    116    1    100.0    5 
17/07/18  15:40   19.4   19.4   19.3    68   13.3  19.0    SW   1.58  23.0   WSW   16.3   19.5   16.4  1016.5  0.00  0.00   0.000   0.004   25.2    54   15.2   25.3   9.80  .0729    116    1    100.0    5 
17/07/18  15:45   19.4   19.4   19.3    68   13.4  19.0    SW   1.58  22.0    SW   16.3   19.6   16.4  1016.5  0.00  0.00   0.000   0.004   25.2    53   15.0   25.3   9.65  .0729    116    1    100.0    5 
17/07/18  15:50   19.4   19.5   19.4    68   13.3  18.0    SW   1.50  22.0    SW   16.4   19.5   16.5  1016.5  0.00  0.00   0.000   0.004   25.2    53   15.0   25.3   9.65  .0729    117    1    100.0    5 
17/07/18  15:55   19.2   19.4   19.2    68   13.1  19.0    SW   1.58  24.0    SW   16.0   19.2   16.1  1016.5  0.00  0.00   0.000   0.003   25.3    54   15.3   25.4   9.80  .0729    116    1    100.0    5 
17/07/18  16:00   19.2   19.3   19.1    68   13.1  19.0    SW   1.58  23.0    SW   16.0   19.2   16.1  1016.3  0.00  0.00   0.000   0.003   25.3    54   15.3   25.4   9.80  .0728    116    1    100.0    5 
17/07/18  16:05   19.2   19.2   19.1    69   13.3  19.0    SW   1.58  22.0   WSW   16.0   19.3   16.1  1016.5  0.00  0.00   0.000   0.003   25.3    54   15.3   25.4   9.80  .0728    115    1    100.0    5 
17/07/18  16:10   19.2   19.2   19.2    70   13.6  18.0    SW   1.50  22.0    SW   16.2   19.3   16.3  1016.3  0.00  0.00   0.000   0.003   25.3    54   15.4   25.5   9.80  .0728    117    1    100.0    5 
17/07/18  16:15   19.1   19.2   19.1    67   12.8  18.0    SW   1.50  22.0   WSW   16.1   19.1   16.1  1016.4  0.00  0.00   0.000   0.003   25.4    54   15.4   25.6   9.80  .0728    118    1    100.0    5 
17/07/18  16:20   19.2   19.3   19.2    68   13.2  19.0    SW   1.58  23.0    SW   16.1   19.3   16.2  1016.4  0.00  0.00   0.000   0.003   25.4    53   15.1   25.5   9.65  .0728    115    1    100.0    5 
17/07/18  16:25   19.4   19.4   19.2    68   13.3  17.0    SW   1.42  21.0    SW   16.6   19.5   16.7  1016.4  0.00  0.00   0.000   0.004   25.4    53   15.1   25.5   9.65  .0728    117    1    100.0    5 
17/07/18  16:30   19.3   19.4   19.3    67   13.0  19.0    SW   1.58  22.0    SW   16.1   19.3   16.2  1016.4  0.00  0.00   0.000   0.003   25.4    53   15.2   25.6   9.65  .0728    117    1    100.0    5 
17/07/18  16:35   19.3   19.3   19.3    66   12.8  18.0    SW   1.50  22.0    SW   16.3   19.3   16.3  1016.4  0.00  0.00   0.000   0.003   25.4    53   15.2   25.6   9.65  .0728    117    1    100.0    5 
17/07/18  16:40   19.4   19.4   19.3    67   13.2  17.0    SW   1.42  21.0   WSW   16.6   19.6   16.7  1016.3  0.00  0.00   0.000   0.004   25.4    53   15.2   25.6   9.65  .0728    117    1    100.0    5 
17/07/18  16:45   19.6   19.6   19.4    67   13.3  16.0    SW   1.33  20.0    SW   16.9   19.7   17.0  1016.4  0.00  0.00   0.000   0.004   25.5    53   15.2   25.7   9.65  .0728    116    1    100.0    5 
17/07/18  16:50   19.6   19.6   19.4    66   13.0  18.0    SW   1.50  21.0    SW   16.6   19.6   16.6  1016.4  0.00  0.00   0.000   0.004   25.5    52   14.9   25.6   9.49  .0728    116    1    100.0    5 
17/07/18  16:55   19.7   19.7   19.6    67   13.4  17.0    SW   1.42  22.0    SW   16.8   19.8   16.9  1016.4  0.00  0.00   0.000   0.005   25.5    52   14.9   25.6   9.49  .0728    117    1    100.0    5 
17/07/18  17:00   19.6   19.7   19.6    65   12.8  17.0    SW   1.42  21.0    SW   16.7   19.6   16.7  1016.4  0.00  0.00   0.000   0.004   25.5    52   14.9   25.6   9.49  .0728    117    1    100.0    5 
17/07/18  17:05   19.4   19.5   19.3    66   12.9  18.0    SW   1.50  21.0   WSW   16.4   19.4   16.4  1016.3  0.00  0.00   0.000   0.004   25.5    52   14.9   25.6   9.49  .0728    117    1    100.0    5 
17/07/18  17:10   19.5   19.6   19.4    66   13.0  17.0    SW   1.42  22.0   WSW   16.7   19.6   16.7  1016.3  0.00  0.00   0.000   0.004   25.5    52   14.9   25.6   9.49  .0728    115    1    100.0    5 
17/07/18  17:15   19.3   19.5   19.3    65   12.6  18.0    SW   1.50  21.0    SW   16.3   19.3   16.3  1016.3  0.00  0.00   0.000   0.003   25.6    52   15.0   25.7   9.49  .0728    117    1    100.0    5 
17/07/18  17:20   19.3   19.4   19.3    67   13.0  17.0    SW   1.42  22.0    SW   16.5   19.4   16.6  1016.2  0.00  0.00   0.000   0.003   25.6    52   15.0   25.7   9.49  .0728    115    1    100.0    5 
17/07/18  17:25   19.3   19.3   19.2    66   12.8  18.0   WSW   1.50  22.0    SW   16.3   19.3   16.3  1016.3  0.00  0.00   0.000   0.003   25.6    52   15.0   25.7   9.49  .0728    116    1    100.0    5 
17/07/18  17:30   19.3   19.3   19.3    66   12.8  17.0    SW   1.42  20.0   WSW   16.5   19.3   16.5  1016.2  0.00  0.00   0.000   0.003   25.6    52   15.0   25.7   9.49  .0728    116    1    100.0    5 
17/07/18  17:35   19.5   19.5   19.3    67   13.2  17.0   WSW   1.42  21.0   WSW   16.7   19.6   16.8  1016.2  0.00  0.00   0.000   0.004   25.6    52   15.0   25.7   9.49  .0728    117    1    100.0    5 
17/07/18  17:40   19.4   19.5   19.4    66   12.9  17.0   WSW   1.42  20.0   WSW   16.6   19.4   16.6  1016.2  0.00  0.00   0.000   0.004   25.6    52   15.0   25.7   9.49  .0728    117    1    100.0    5 
17/07/18  17:45   19.4   19.4   19.4    66   12.9  17.0   WSW   1.42  20.0    SW   16.6   19.5   16.7  1016.2  0.00  0.00   0.000   0.004   25.6    52   15.0   25.7   9.49  .0728    114    1    100.0    5 
17/07/18  17:50   19.4   19.4   19.4    68   13.4  16.0    SW   1.33  19.0    SW   16.8   19.6   16.9  1016.3  0.00  0.00   0.000   0.004   25.6    52   15.0   25.7   9.49  .0728    117    1    100.0    5 
17/07/18  17:55   19.3   19.5   19.3    67   13.0  17.0   WSW   1.42  21.0   WSW   16.4   19.3   16.4  1016.1  0.00  0.00   0.000   0.003   25.6    53   15.3   25.8   9.65  .0727    116    1    100.0    5 
17/07/18  18:00   19.2   19.3   19.2    67   12.9  17.0    SW   1.42  21.0    SW   16.3   19.2   16.3  1016.2  0.00  0.00   0.000   0.003   25.6    52   15.0   25.7   9.49  .0728    117    1    100.0    5 
17/07/18  18:05   19.3   19.3   19.2    67   13.0  17.0   WSW   1.42  21.0   WSW   16.5   19.4   16.6  1016.2  0.00  0.00   0.000   0.003   25.6    52   15.0   25.7   9.49  .0728    117    1    100.0    5 
17/07/18  18:10   19.5   19.5   19.3    67   13.2  16.0    SW   1.33  20.0    SW   16.8   19.6   16.9  1016.2  0.00  0.00   0.000   0.004   25.6    52   15.0   25.7   9.49  .0728    116    1    100.0    5 
104856